PWSweather.com
Personal Weather Stations
Station Observations
KOHREFORM1
Reform, Ohio, Newark, OH 43055

Reform, OhioNewark, OH 43055

Lat: 40.1502, Lon: -82.2417

Elevation: 1043

Station Type: Davis Vantage Pro 2 Plus

randysweatheronthehill.com

High Low Average
Temperature 40.7°F4.8°C 23.8°F-4.6°C 31.1°F-0.5°C
Dew Point 27.0°F-2.8°C 16.3°F-8.7°C 20.9°F-6.2°C
Winds 11.0 mph 17.7 kmh Calm Calm 4.0 mph S6.4 kmh S
Wind Gusts 14.0 mph22.5 kmh -- 9.0 mph14.5 kmh
Humidity 91% 47% 71%
Pressure 30.10 in1019.3 mb 29.95 in1014.2 mb -
Precipitation 0.00 in0.0 mm - -
Hour Temp Dew Point Humidity Winds Wind Gusts Pressure Precip Precip Rate Daily Precip Total
12:00 AM 30.0°F-1.1°C 20.0°F-6.7°C 70% 7.0 mph NE11.3 kmh NE 11.0 mph17.7 kmh 30.10 in1019.3 mb 0.00 in0.0 mm 0.00 in0.0 mm 0.00 in0.0 mm
12:02 AM 30.1°F-1.1°C 20.1°F-6.6°C 70% 6.0 mph ESE9.7 kmh ESE 11.0 mph17.7 kmh 30.10 in1019.3 mb 0.00 in0.0 mm 0.00 in0.0 mm 0.00 in0.0 mm
12:04 AM 30.0°F-1.1°C 20.0°F-6.7°C 70% 7.0 mph NE11.3 kmh NE 11.0 mph17.7 kmh 30.10 in1019.3 mb 0.00 in0.0 mm 0.00 in0.0 mm 0.00 in0.0 mm
12:06 AM 30.0°F-1.1°C 20.0°F-6.7°C 70% 4.0 mph NE6.4 kmh NE 11.0 mph17.7 kmh 30.10 in1019.3 mb 0.00 in0.0 mm 0.00 in0.0 mm 0.00 in0.0 mm
12:08 AM 30.0°F-1.1°C 20.0°F-6.7°C 70% 5.0 mph NE8.0 kmh NE 11.0 mph17.7 kmh 30.10 in1019.3 mb 0.00 in0.0 mm 0.00 in0.0 mm 0.00 in0.0 mm
12:10 AM 29.9°F-1.2°C 19.9°F-6.7°C 70% 6.0 mph NE9.7 kmh NE 11.0 mph17.7 kmh 30.10 in1019.3 mb 0.00 in0.0 mm 0.00 in0.0 mm 0.00 in0.0 mm
12:12 AM 29.9°F-1.2°C 19.9°F-6.7°C 70% 1.0 mph WSW1.6 kmh WSW 11.0 mph17.7 kmh 30.10 in1019.3 mb 0.00 in0.0 mm 0.00 in0.0 mm 0.00 in0.0 mm
12:14 AM 29.9°F-1.2°C 19.9°F-6.7°C 70% 1.0 mph ENE1.6 kmh ENE 11.0 mph17.7 kmh 30.10 in1019.3 mb 0.00 in0.0 mm 0.00 in0.0 mm 0.00 in0.0 mm
12:16 AM 29.9°F-1.2°C 19.9°F-6.7°C 70% 6.0 mph NE9.7 kmh NE 11.0 mph17.7 kmh 30.10 in1019.3 mb 0.00 in0.0 mm 0.00 in0.0 mm 0.00 in0.0 mm
12:18 AM 29.8°F-1.2°C 19.8°F-6.8°C 70% 1.0 mph ENE1.6 kmh ENE 11.0 mph17.7 kmh 30.10 in1019.3 mb 0.00 in0.0 mm 0.00 in0.0 mm 0.00 in0.0 mm
12:20 AM 29.8°F-1.2°C 20.2°F-6.6°C 71% 2.0 mph ENE3.2 kmh ENE 10.0 mph16.1 kmh 30.10 in1019.3 mb 0.00 in0.0 mm 0.00 in0.0 mm 0.00 in0.0 mm
12:22 AM 29.7°F-1.3°C 20.1°F-6.6°C 71% 4.0 mph NE6.4 kmh NE 10.0 mph16.1 kmh 30.10 in1019.3 mb 0.00 in0.0 mm 0.00 in0.0 mm 0.00 in0.0 mm
12:24 AM 29.7°F-1.3°C 20.1°F-6.6°C 71% 2.0 mph NE3.2 kmh NE 10.0 mph16.1 kmh 30.10 in1019.3 mb 0.00 in0.0 mm 0.00 in0.0 mm 0.00 in0.0 mm
12:26 AM 29.7°F-1.3°C 20.1°F-6.6°C 71% 2.0 mph NE3.2 kmh NE 10.0 mph16.1 kmh 30.10 in1019.3 mb 0.00 in0.0 mm 0.00 in0.0 mm 0.00 in0.0 mm
12:28 AM 29.7°F-1.3°C 20.1°F-6.6°C 71% 4.0 mph NE6.4 kmh NE 10.0 mph16.1 kmh 30.10 in1019.3 mb 0.00 in0.0 mm 0.00 in0.0 mm 0.00 in0.0 mm
12:30 AM 29.6°F-1.3°C 20.0°F-6.7°C 71% 5.0 mph NE8.0 kmh NE 10.0 mph16.1 kmh 30.10 in1019.3 mb 0.00 in0.0 mm 0.00 in0.0 mm 0.00 in0.0 mm
12:32 AM 29.6°F-1.3°C 20.0°F-6.7°C 71% 5.0 mph NE8.0 kmh NE 11.0 mph17.7 kmh 30.10 in1019.3 mb 0.00 in0.0 mm 0.00 in0.0 mm 0.00 in0.0 mm
12:34 AM 29.6°F-1.3°C 20.0°F-6.7°C 71% 2.0 mph NE3.2 kmh NE 11.0 mph17.7 kmh 30.10 in1019.3 mb 0.00 in0.0 mm 0.00 in0.0 mm 0.00 in0.0 mm
12:36 AM 29.6°F-1.3°C 20.0°F-6.7°C 71% 2.0 mph E3.2 kmh E 11.0 mph17.7 kmh 30.10 in1019.3 mb 0.00 in0.0 mm 0.00 in0.0 mm 0.00 in0.0 mm
12:38 AM 29.6°F-1.3°C 20.0°F-6.7°C 71% 3.0 mph NE4.8 kmh NE 11.0 mph17.7 kmh 30.09 in1019.0 mb 0.00 in0.0 mm 0.00 in0.0 mm 0.00 in0.0 mm
12:40 AM 29.5°F-1.4°C 19.9°F-6.7°C 71% 4.0 mph NE6.4 kmh NE 11.0 mph17.7 kmh 30.09 in1019.0 mb 0.00 in0.0 mm 0.00 in0.0 mm 0.00 in0.0 mm
12:42 AM 29.5°F-1.4°C 19.9°F-6.7°C 71% 3.0 mph NE4.8 kmh NE 11.0 mph17.7 kmh 30.09 in1019.0 mb 0.00 in0.0 mm 0.00 in0.0 mm 0.00 in0.0 mm
12:44 AM 29.5°F-1.4°C 19.9°F-6.7°C 71% 5.0 mph NNE8.0 kmh NNE 11.0 mph17.7 kmh 30.09 in1019.0 mb 0.00 in0.0 mm 0.00 in0.0 mm 0.00 in0.0 mm
12:46 AM 29.4°F-1.4°C 19.8°F-6.8°C 71% 4.0 mph NNE6.4 kmh NNE 11.0 mph17.7 kmh 30.09 in1019.0 mb 0.00 in0.0 mm 0.00 in0.0 mm 0.00 in0.0 mm
12:48 AM 29.4°F-1.4°C 19.8°F-6.8°C 71% 3.0 mph ENE4.8 kmh ENE 11.0 mph17.7 kmh 30.09 in1019.0 mb 0.00 in0.0 mm 0.00 in0.0 mm 0.00 in0.0 mm
12:50 AM 29.4°F-1.4°C 19.8°F-6.8°C 71% 5.0 mph NNE8.0 kmh NNE 11.0 mph17.7 kmh 30.09 in1019.0 mb 0.00 in0.0 mm 0.00 in0.0 mm 0.00 in0.0 mm
12:52 AM 29.4°F-1.4°C 19.8°F-6.8°C 71% 3.0 mph NNE4.8 kmh NNE 9.0 mph14.5 kmh 30.09 in1019.0 mb 0.00 in0.0 mm 0.00 in0.0 mm 0.00 in0.0 mm
12:54 AM 29.4°F-1.4°C 19.8°F-6.8°C 71% 5.0 mph NE8.0 kmh NE 9.0 mph14.5 kmh 30.09 in1019.0 mb 0.00 in0.0 mm 0.00 in0.0 mm 0.00 in0.0 mm
12:56 AM 29.3°F-1.5°C 19.7°F-6.8°C 71% 2.0 mph ENE3.2 kmh ENE 9.0 mph14.5 kmh 30.09 in1019.0 mb 0.00 in0.0 mm 0.00 in0.0 mm 0.00 in0.0 mm
12:58 AM 29.3°F-1.5°C 19.7°F-6.8°C 71% 3.0 mph ENE4.8 kmh ENE 9.0 mph14.5 kmh 30.09 in1019.0 mb 0.00 in0.0 mm 0.00 in0.0 mm 0.00 in0.0 mm
01:00 AM 29.3°F-1.5°C 19.4°F-7.0°C 70% 3.0 mph ENE4.8 kmh ENE 10.0 mph16.1 kmh 30.09 in1019.0 mb 0.00 in0.0 mm 0.00 in0.0 mm 0.00 in0.0 mm
01:02 AM 29.3°F-1.5°C 19.7°F-6.8°C 71% 4.0 mph NE6.4 kmh NE 10.0 mph16.1 kmh 30.09 in1019.0 mb 0.00 in0.0 mm 0.00 in0.0 mm 0.00 in0.0 mm
01:04 AM 29.2°F-1.6°C 19.6°F-6.9°C 71% 3.0 mph N4.8 kmh N 10.0 mph16.1 kmh 30.09 in1019.0 mb 0.00 in0.0 mm 0.00 in0.0 mm 0.00 in0.0 mm
01:06 AM 29.2°F-1.6°C 19.6°F-6.9°C 71% 4.0 mph NE6.4 kmh NE 10.0 mph16.1 kmh 30.09 in1019.0 mb 0.00 in0.0 mm 0.00 in0.0 mm 0.00 in0.0 mm
01:08 AM 29.2°F-1.6°C 19.6°F-6.9°C 71% 4.0 mph NNE6.4 kmh NNE 10.0 mph16.1 kmh 30.09 in1019.0 mb 0.00 in0.0 mm 0.00 in0.0 mm 0.00 in0.0 mm
01:10 AM 29.2°F-1.6°C 19.6°F-6.9°C 71% 5.0 mph NE8.0 kmh NE 10.0 mph16.1 kmh 30.09 in1019.0 mb 0.00 in0.0 mm 0.00 in0.0 mm 0.00 in0.0 mm
01:12 AM 29.2°F-1.6°C 19.6°F-6.9°C 71% 7.0 mph NE11.3 kmh NE 10.0 mph16.1 kmh 30.09 in1019.0 mb 0.00 in0.0 mm 0.00 in0.0 mm 0.00 in0.0 mm
01:14 AM 29.2°F-1.6°C 19.6°F-6.9°C 71% 2.0 mph NE3.2 kmh NE 10.0 mph16.1 kmh 30.09 in1019.0 mb 0.00 in0.0 mm 0.00 in0.0 mm 0.00 in0.0 mm
01:16 AM 29.1°F-1.6°C 19.5°F-6.9°C 71% 4.0 mph NE6.4 kmh NE 10.0 mph16.1 kmh 30.09 in1019.0 mb 0.00 in0.0 mm 0.00 in0.0 mm 0.00 in0.0 mm
01:18 AM 29.1°F-1.6°C 19.5°F-6.9°C 71% 4.0 mph NE6.4 kmh NE 10.0 mph16.1 kmh 30.09 in1019.0 mb 0.00 in0.0 mm 0.00 in0.0 mm 0.00 in0.0 mm
01:20 AM 29.1°F-1.6°C 19.2°F-7.1°C 70% 2.0 mph ENE3.2 kmh ENE 9.0 mph14.5 kmh 30.09 in1019.0 mb 0.00 in0.0 mm 0.00 in0.0 mm 0.00 in0.0 mm
01:22 AM 29.2°F-1.6°C 19.6°F-6.9°C 71% 2.0 mph NE3.2 kmh NE 9.0 mph14.5 kmh 30.09 in1019.0 mb 0.00 in0.0 mm 0.00 in0.0 mm 0.00 in0.0 mm
01:24 AM 29.1°F-1.6°C 19.5°F-6.9°C 71% 2.0 mph NNE3.2 kmh NNE 9.0 mph14.5 kmh 30.09 in1019.0 mb 0.00 in0.0 mm 0.00 in0.0 mm 0.00 in0.0 mm
01:26 AM 29.1°F-1.6°C 19.5°F-6.9°C 71% 2.0 mph NE3.2 kmh NE 9.0 mph14.5 kmh 30.10 in1019.3 mb 0.00 in0.0 mm 0.00 in0.0 mm 0.00 in0.0 mm
01:28 AM 29.1°F-1.6°C 19.5°F-6.9°C 71% 3.0 mph NE4.8 kmh NE 9.0 mph14.5 kmh 30.09 in1019.0 mb 0.00 in0.0 mm 0.00 in0.0 mm 0.00 in0.0 mm
01:30 AM 29.1°F-1.6°C 19.5°F-6.9°C 71% 3.0 mph N4.8 kmh N 9.0 mph14.5 kmh 30.09 in1019.0 mb 0.00 in0.0 mm 0.00 in0.0 mm 0.00 in0.0 mm
01:32 AM 29.0°F-1.7°C 19.4°F-7.0°C 71% 4.0 mph NE6.4 kmh NE 9.0 mph14.5 kmh 30.09 in1019.0 mb 0.00 in0.0 mm 0.00 in0.0 mm 0.00 in0.0 mm
01:34 AM 29.0°F-1.7°C 19.4°F-7.0°C 71% 5.0 mph N8.0 kmh N 9.0 mph14.5 kmh 30.09 in1019.0 mb 0.00 in0.0 mm 0.00 in0.0 mm 0.00 in0.0 mm
01:36 AM 29.0°F-1.7°C 19.4°F-7.0°C 71% 6.0 mph N9.7 kmh N 9.0 mph14.5 kmh 30.09 in1019.0 mb 0.00 in0.0 mm 0.00 in0.0 mm 0.00 in0.0 mm
01:38 AM 29.0°F-1.7°C 19.4°F-7.0°C 71% 4.0 mph NE6.4 kmh NE 10.0 mph16.1 kmh 30.09 in1019.0 mb 0.00 in0.0 mm 0.00 in0.0 mm 0.00 in0.0 mm
01:40 AM 29.0°F-1.7°C 19.4°F-7.0°C 71% 5.0 mph ENE8.0 kmh ENE 10.0 mph16.1 kmh 30.09 in1019.0 mb 0.00 in0.0 mm 0.00 in0.0 mm 0.00 in0.0 mm
01:42 AM 29.0°F-1.7°C 19.4°F-7.0°C 71% 3.0 mph NE4.8 kmh NE 10.0 mph16.1 kmh 30.09 in1019.0 mb 0.00 in0.0 mm 0.00 in0.0 mm 0.00 in0.0 mm
01:44 AM 29.0°F-1.7°C 19.4°F-7.0°C 71% 4.0 mph NE6.4 kmh NE 10.0 mph16.1 kmh 30.09 in1019.0 mb 0.00 in0.0 mm 0.00 in0.0 mm 0.00 in0.0 mm
01:46 AM 29.0°F-1.7°C 19.4°F-7.0°C 71% Calm Calm 10.0 mph16.1 kmh 30.09 in1019.0 mb 0.00 in0.0 mm 0.00 in0.0 mm 0.00 in0.0 mm
01:48 AM 28.9°F-1.7°C 19.3°F-7.1°C 71% 3.0 mph NE4.8 kmh NE 10.0 mph16.1 kmh 30.09 in1019.0 mb 0.00 in0.0 mm 0.00 in0.0 mm 0.00 in0.0 mm
01:50 AM 28.9°F-1.7°C 19.3°F-7.1°C 71% 4.0 mph ENE6.4 kmh ENE 10.0 mph16.1 kmh 30.09 in1019.0 mb 0.00 in0.0 mm 0.00 in0.0 mm 0.00 in0.0 mm
01:52 AM 28.9°F-1.7°C 19.3°F-7.1°C 71% 4.0 mph NNE6.4 kmh NNE 10.0 mph16.1 kmh 30.09 in1019.0 mb 0.00 in0.0 mm 0.00 in0.0 mm 0.00 in0.0 mm
01:54 AM 28.9°F-1.7°C 19.3°F-7.1°C 71% 6.0 mph NE9.7 kmh NE 10.0 mph16.1 kmh 30.09 in1019.0 mb 0.00 in0.0 mm 0.00 in0.0 mm 0.00 in0.0 mm
01:56 AM 28.8°F-1.8°C 19.2°F-7.1°C 71% 3.0 mph NE4.8 kmh NE 10.0 mph16.1 kmh 30.09 in1019.0 mb 0.00 in0.0 mm 0.00 in0.0 mm 0.00 in0.0 mm
01:58 AM 28.8°F-1.8°C 19.2°F-7.1°C 71% 3.0 mph NE4.8 kmh NE 9.0 mph14.5 kmh 30.09 in1019.0 mb 0.00 in0.0 mm 0.00 in0.0 mm 0.00 in0.0 mm
02:00 AM 28.8°F-1.8°C 19.2°F-7.1°C 71% 2.0 mph NE3.2 kmh NE 9.0 mph14.5 kmh 30.09 in1019.0 mb 0.00 in0.0 mm 0.00 in0.0 mm 0.00 in0.0 mm
02:02 AM 28.8°F-1.8°C 19.2°F-7.1°C 71% 11.0 mph NE17.7 kmh NE 11.0 mph17.7 kmh 30.09 in1019.0 mb 0.00 in0.0 mm 0.00 in0.0 mm 0.00 in0.0 mm
02:04 AM 28.7°F-1.8°C 19.2°F-7.1°C 71% 4.0 mph NE6.4 kmh NE 11.0 mph17.7 kmh 30.08 in1018.6 mb 0.00 in0.0 mm 0.00 in0.0 mm 0.00 in0.0 mm
02:06 AM 28.7°F-1.8°C 19.2°F-7.1°C 71% 3.0 mph NE4.8 kmh NE 11.0 mph17.7 kmh 30.08 in1018.6 mb 0.00 in0.0 mm 0.00 in0.0 mm 0.00 in0.0 mm
02:08 AM 28.7°F-1.8°C 18.8°F-7.3°C 70% 4.0 mph NE6.4 kmh NE 11.0 mph17.7 kmh 30.08 in1018.6 mb 0.00 in0.0 mm 0.00 in0.0 mm 0.00 in0.0 mm
02:10 AM 28.6°F-1.9°C 18.7°F-7.4°C 70% 9.0 mph NE14.5 kmh NE 11.0 mph17.7 kmh 30.08 in1018.6 mb 0.00 in0.0 mm 0.00 in0.0 mm 0.00 in0.0 mm
02:12 AM 28.6°F-1.9°C 18.7°F-7.4°C 70% 4.0 mph E6.4 kmh E 11.0 mph17.7 kmh 30.08 in1018.6 mb 0.00 in0.0 mm 0.00 in0.0 mm 0.00 in0.0 mm
02:14 AM 28.5°F-1.9°C 18.6°F-7.4°C 70% 3.0 mph NE4.8 kmh NE 11.0 mph17.7 kmh 30.08 in1018.6 mb 0.00 in0.0 mm 0.00 in0.0 mm 0.00 in0.0 mm
02:16 AM 28.5°F-1.9°C 18.6°F-7.4°C 70% 4.0 mph NE6.4 kmh NE 11.0 mph17.7 kmh 30.08 in1018.6 mb 0.00 in0.0 mm 0.00 in0.0 mm 0.00 in0.0 mm
02:18 AM 28.5°F-1.9°C 18.6°F-7.4°C 70% 4.0 mph ENE6.4 kmh ENE 11.0 mph17.7 kmh 30.08 in1018.6 mb 0.00 in0.0 mm 0.00 in0.0 mm 0.00 in0.0 mm
02:20 AM 28.5°F-1.9°C 18.6°F-7.4°C 70% 4.0 mph NE6.4 kmh NE 11.0 mph17.7 kmh 30.08 in1018.6 mb 0.00 in0.0 mm 0.00 in0.0 mm 0.00 in0.0 mm
02:22 AM 28.5°F-1.9°C 18.6°F-7.4°C 70% 11.0 mph NE17.7 kmh NE 11.0 mph17.7 kmh 30.08 in1018.6 mb 0.00 in0.0 mm 0.00 in0.0 mm 0.00 in0.0 mm
02:24 AM 28.4°F-2.0°C 18.5°F-7.5°C 70% 3.0 mph NE4.8 kmh NE 11.0 mph17.7 kmh 30.08 in1018.6 mb 0.00 in0.0 mm 0.00 in0.0 mm 0.00 in0.0 mm
02:26 AM 28.4°F-2.0°C 18.5°F-7.5°C 70% 6.0 mph NE9.7 kmh NE 11.0 mph17.7 kmh 30.08 in1018.6 mb 0.00 in0.0 mm 0.00 in0.0 mm 0.00 in0.0 mm
02:28 AM 28.4°F-2.0°C 18.5°F-7.5°C 70% 2.0 mph NE3.2 kmh NE 11.0 mph17.7 kmh 30.08 in1018.6 mb 0.00 in0.0 mm 0.00 in0.0 mm 0.00 in0.0 mm
02:30 AM 28.4°F-2.0°C 18.5°F-7.5°C 70% 2.0 mph NE3.2 kmh NE 11.0 mph17.7 kmh 30.08 in1018.6 mb 0.00 in0.0 mm 0.00 in0.0 mm 0.00 in0.0 mm
02:32 AM 28.4°F-2.0°C 18.5°F-7.5°C 70% 1.0 mph NE1.6 kmh NE 11.0 mph17.7 kmh 30.08 in1018.6 mb 0.00 in0.0 mm 0.00 in0.0 mm 0.00 in0.0 mm
02:34 AM 28.3°F-2.1°C 18.4°F-7.6°C 70% 2.0 mph E3.2 kmh E 11.0 mph17.7 kmh 30.08 in1018.6 mb 0.00 in0.0 mm 0.00 in0.0 mm 0.00 in0.0 mm
02:36 AM 28.3°F-2.1°C 18.4°F-7.6°C 70% 4.0 mph ENE6.4 kmh ENE 11.0 mph17.7 kmh 30.08 in1018.6 mb 0.00 in0.0 mm 0.00 in0.0 mm 0.00 in0.0 mm
02:38 AM 28.3°F-2.1°C 18.8°F-7.3°C 71% 4.0 mph NE6.4 kmh NE 11.0 mph17.7 kmh 30.08 in1018.6 mb 0.00 in0.0 mm 0.00 in0.0 mm 0.00 in0.0 mm
02:40 AM 28.2°F-2.1°C 18.7°F-7.4°C 71% 3.0 mph NE4.8 kmh NE 11.0 mph17.7 kmh 30.08 in1018.6 mb 0.00 in0.0 mm 0.00 in0.0 mm 0.00 in0.0 mm
02:42 AM 28.2°F-2.1°C 18.3°F-7.6°C 70% 1.0 mph NE1.6 kmh NE 11.0 mph17.7 kmh 30.08 in1018.6 mb 0.00 in0.0 mm 0.00 in0.0 mm 0.00 in0.0 mm
02:44 AM 28.1°F-2.2°C 18.2°F-7.7°C 70% 2.0 mph NNE3.2 kmh NNE 11.0 mph17.7 kmh 30.08 in1018.6 mb 0.00 in0.0 mm 0.00 in0.0 mm 0.00 in0.0 mm
02:46 AM 28.1°F-2.2°C 18.2°F-7.7°C 70% 3.0 mph NE4.8 kmh NE 11.0 mph17.7 kmh 30.08 in1018.6 mb 0.00 in0.0 mm 0.00 in0.0 mm 0.00 in0.0 mm
02:48 AM 28.0°F-2.2°C 18.1°F-7.7°C 70% 3.0 mph NE4.8 kmh NE 11.0 mph17.7 kmh 30.08 in1018.6 mb 0.00 in0.0 mm 0.00 in0.0 mm 0.00 in0.0 mm
02:50 AM 28.0°F-2.2°C 18.5°F-7.5°C 71% 2.0 mph NE3.2 kmh NE 11.0 mph17.7 kmh 30.08 in1018.6 mb 0.00 in0.0 mm 0.00 in0.0 mm 0.00 in0.0 mm
02:52 AM 28.0°F-2.2°C 18.5°F-7.5°C 71% 3.0 mph NE4.8 kmh NE 11.0 mph17.7 kmh 30.08 in1018.6 mb 0.00 in0.0 mm 0.00 in0.0 mm 0.00 in0.0 mm
02:54 AM 28.0°F-2.2°C 18.5°F-7.5°C 71% 3.0 mph NE4.8 kmh NE 11.0 mph17.7 kmh 30.08 in1018.6 mb 0.00 in0.0 mm 0.00 in0.0 mm 0.00 in0.0 mm
02:56 AM 27.9°F-2.3°C 18.4°F-7.6°C 71% 2.0 mph ENE3.2 kmh ENE 7.0 mph11.3 kmh 30.08 in1018.6 mb 0.00 in0.0 mm 0.00 in0.0 mm 0.00 in0.0 mm
02:58 AM 27.9°F-2.3°C 18.4°F-7.6°C 71% 5.0 mph NE8.0 kmh NE 8.0 mph12.9 kmh 30.08 in1018.6 mb 0.00 in0.0 mm 0.00 in0.0 mm 0.00 in0.0 mm
03:00 AM 27.9°F-2.3°C 18.4°F-7.6°C 71% 3.0 mph NE4.8 kmh NE 9.0 mph14.5 kmh 30.07 in1018.3 mb 0.00 in0.0 mm 0.00 in0.0 mm 0.00 in0.0 mm
03:02 AM 27.8°F-2.3°C 17.9°F-7.8°C 70% 5.0 mph NE8.0 kmh NE 9.0 mph14.5 kmh 30.07 in1018.3 mb 0.00 in0.0 mm 0.00 in0.0 mm 0.00 in0.0 mm
03:04 AM 27.8°F-2.3°C 18.3°F-7.6°C 71% 5.0 mph ENE8.0 kmh ENE 9.0 mph14.5 kmh 30.07 in1018.3 mb 0.00 in0.0 mm 0.00 in0.0 mm 0.00 in0.0 mm
03:06 AM 27.8°F-2.3°C 18.3°F-7.6°C 71% 5.0 mph NE8.0 kmh NE 9.0 mph14.5 kmh 30.07 in1018.3 mb 0.00 in0.0 mm 0.00 in0.0 mm 0.00 in0.0 mm
03:08 AM 27.8°F-2.3°C 18.3°F-7.6°C 71% 6.0 mph ENE9.7 kmh ENE 9.0 mph14.5 kmh 30.07 in1018.3 mb 0.00 in0.0 mm 0.00 in0.0 mm 0.00 in0.0 mm
03:10 AM 27.8°F-2.3°C 18.3°F-7.6°C 71% 7.0 mph NE11.3 kmh NE 9.0 mph14.5 kmh 30.07 in1018.3 mb 0.00 in0.0 mm 0.00 in0.0 mm 0.00 in0.0 mm
03:12 AM 27.7°F-2.4°C 18.2°F-7.7°C 71% 7.0 mph NE11.3 kmh NE 12.0 mph19.3 kmh 30.07 in1018.3 mb 0.00 in0.0 mm 0.00 in0.0 mm 0.00 in0.0 mm
03:14 AM 27.7°F-2.4°C 18.2°F-7.7°C 71% 5.0 mph NE8.0 kmh NE 12.0 mph19.3 kmh 30.06 in1017.9 mb 0.00 in0.0 mm 0.00 in0.0 mm 0.00 in0.0 mm
03:16 AM 27.7°F-2.4°C 18.2°F-7.7°C 71% 6.0 mph NNE9.7 kmh NNE 12.0 mph19.3 kmh 30.06 in1017.9 mb 0.00 in0.0 mm 0.00 in0.0 mm 0.00 in0.0 mm
03:18 AM 27.6°F-2.4°C 18.1°F-7.7°C 71% 6.0 mph NE9.7 kmh NE 12.0 mph19.3 kmh 30.06 in1017.9 mb 0.00 in0.0 mm 0.00 in0.0 mm 0.00 in0.0 mm
03:20 AM 27.6°F-2.4°C 18.1°F-7.7°C 71% 4.0 mph NE6.4 kmh NE 12.0 mph19.3 kmh 30.06 in1017.9 mb 0.00 in0.0 mm 0.00 in0.0 mm 0.00 in0.0 mm
03:22 AM 27.6°F-2.4°C 18.1°F-7.7°C 71% 3.0 mph NE4.8 kmh NE 12.0 mph19.3 kmh 30.05 in1017.6 mb 0.00 in0.0 mm 0.00 in0.0 mm 0.00 in0.0 mm
03:24 AM 27.5°F-2.5°C 18.0°F-7.8°C 71% 3.0 mph NNE4.8 kmh NNE 12.0 mph19.3 kmh 30.06 in1017.9 mb 0.00 in0.0 mm 0.00 in0.0 mm 0.00 in0.0 mm
03:26 AM 27.5°F-2.5°C 18.0°F-7.8°C 71% 3.0 mph N4.8 kmh N 12.0 mph19.3 kmh 30.05 in1017.6 mb 0.00 in0.0 mm 0.00 in0.0 mm 0.00 in0.0 mm
03:28 AM 27.5°F-2.5°C 18.0°F-7.8°C 71% 2.0 mph ENE3.2 kmh ENE 12.0 mph19.3 kmh 30.05 in1017.6 mb 0.00 in0.0 mm 0.00 in0.0 mm 0.00 in0.0 mm
03:30 AM 27.5°F-2.5°C 18.0°F-7.8°C 71% 2.0 mph NE3.2 kmh NE 12.0 mph19.3 kmh 30.05 in1017.6 mb 0.00 in0.0 mm 0.00 in0.0 mm 0.00 in0.0 mm
03:32 AM 27.4°F-2.6°C 17.9°F-7.8°C 71% 2.0 mph NNE3.2 kmh NNE 9.0 mph14.5 kmh 30.05 in1017.6 mb 0.00 in0.0 mm 0.00 in0.0 mm 0.00 in0.0 mm
03:34 AM 27.4°F-2.6°C 17.9°F-7.8°C 71% 4.0 mph NE6.4 kmh NE 9.0 mph14.5 kmh 30.05 in1017.6 mb 0.00 in0.0 mm 0.00 in0.0 mm 0.00 in0.0 mm
03:36 AM 27.3°F-2.6°C 17.8°F-7.9°C 71% 3.0 mph NE4.8 kmh NE 9.0 mph14.5 kmh 30.05 in1017.6 mb 0.00 in0.0 mm 0.00 in0.0 mm 0.00 in0.0 mm
03:38 AM 27.3°F-2.6°C 17.8°F-7.9°C 71% 3.0 mph NE4.8 kmh NE 9.0 mph14.5 kmh 30.05 in1017.6 mb 0.00 in0.0 mm 0.00 in0.0 mm 0.00 in0.0 mm
03:40 AM 27.3°F-2.6°C 17.8°F-7.9°C 71% 9.0 mph ENE14.5 kmh ENE 13.0 mph20.9 kmh 30.05 in1017.6 mb 0.00 in0.0 mm 0.00 in0.0 mm 0.00 in0.0 mm
03:42 AM 27.3°F-2.6°C 17.8°F-7.9°C 71% 3.0 mph NNE4.8 kmh NNE 13.0 mph20.9 kmh 30.05 in1017.6 mb 0.00 in0.0 mm 0.00 in0.0 mm 0.00 in0.0 mm
03:44 AM 27.2°F-2.7°C 17.7°F-7.9°C 71% 5.0 mph NE8.0 kmh NE 13.0 mph20.9 kmh 30.05 in1017.6 mb 0.00 in0.0 mm 0.00 in0.0 mm 0.00 in0.0 mm
03:46 AM 27.2°F-2.7°C 17.7°F-7.9°C 71% 6.0 mph 9.7 kmh 13.0 mph20.9 kmh 30.05 in1017.6 mb 0.00 in0.0 mm 0.00 in0.0 mm 0.00 in0.0 mm
03:48 AM 27.2°F-2.7°C 17.7°F-7.9°C 71% 3.0 mph NNE4.8 kmh NNE 13.0 mph20.9 kmh 30.05 in1017.6 mb 0.00 in0.0 mm 0.00 in0.0 mm 0.00 in0.0 mm
03:50 AM 27.1°F-2.7°C 17.6°F-8.0°C 71% 3.0 mph NE4.8 kmh NE 13.0 mph20.9 kmh 30.04 in1017.3 mb 0.00 in0.0 mm 0.00 in0.0 mm 0.00 in0.0 mm
03:52 AM 27.1°F-2.7°C 17.6°F-8.0°C 71% 5.0 mph NE8.0 kmh NE 13.0 mph20.9 kmh 30.04 in1017.3 mb 0.00 in0.0 mm 0.00 in0.0 mm 0.00 in0.0 mm
03:54 AM 27.0°F-2.8°C 17.2°F-8.2°C 70% 5.0 mph NE8.0 kmh NE 13.0 mph20.9 kmh 30.04 in1017.3 mb 0.00 in0.0 mm 0.00 in0.0 mm 0.00 in0.0 mm
03:56 AM 27.0°F-2.8°C 17.5°F-8.1°C 71% 2.0 mph ENE3.2 kmh ENE 13.0 mph20.9 kmh 30.04 in1017.3 mb 0.00 in0.0 mm 0.00 in0.0 mm 0.00 in0.0 mm
03:58 AM 27.0°F-2.8°C 17.5°F-8.1°C 71% 4.0 mph NE6.4 kmh NE 13.0 mph20.9 kmh 30.04 in1017.3 mb 0.00 in0.0 mm 0.00 in0.0 mm 0.00 in0.0 mm
04:00 AM 27.0°F-2.8°C 17.5°F-8.1°C 71% 5.0 mph NNE8.0 kmh NNE 10.0 mph16.1 kmh 30.04 in1017.3 mb 0.00 in0.0 mm 0.00 in0.0 mm 0.00 in0.0 mm
04:02 AM 27.0°F-2.8°C 17.5°F-8.1°C 71% 7.0 mph NE11.3 kmh NE 10.0 mph16.1 kmh 30.03 in1016.9 mb 0.00 in0.0 mm 0.00 in0.0 mm 0.00 in0.0 mm
04:04 AM 27.0°F-2.8°C 17.5°F-8.1°C 71% 4.0 mph ENE6.4 kmh ENE 10.0 mph16.1 kmh 30.03 in1016.9 mb 0.00 in0.0 mm 0.00 in0.0 mm 0.00 in0.0 mm
04:06 AM 27.0°F-2.8°C 17.5°F-8.1°C 71% 2.0 mph NE3.2 kmh NE 10.0 mph16.1 kmh 30.03 in1016.9 mb 0.00 in0.0 mm 0.00 in0.0 mm 0.00 in0.0 mm
04:08 AM 27.0°F-2.8°C 17.5°F-8.1°C 71% 3.0 mph N4.8 kmh N 10.0 mph16.1 kmh 30.03 in1016.9 mb 0.00 in0.0 mm 0.00 in0.0 mm 0.00 in0.0 mm
04:10 AM 26.9°F-2.8°C 17.4°F-8.1°C 71% 2.0 mph NE3.2 kmh NE 10.0 mph16.1 kmh 30.03 in1016.9 mb 0.00 in0.0 mm 0.00 in0.0 mm 0.00 in0.0 mm
04:12 AM 26.9°F-2.8°C 17.4°F-8.1°C 71% 3.0 mph ENE4.8 kmh ENE 10.0 mph16.1 kmh 30.03 in1016.9 mb 0.00 in0.0 mm 0.00 in0.0 mm 0.00 in0.0 mm
04:14 AM 26.9°F-2.8°C 17.4°F-8.1°C 71% 5.0 mph NE8.0 kmh NE 10.0 mph16.1 kmh 30.03 in1016.9 mb 0.00 in0.0 mm 0.00 in0.0 mm 0.00 in0.0 mm
04:16 AM 26.9°F-2.8°C 17.4°F-8.1°C 71% 8.0 mph ENE12.9 kmh ENE 10.0 mph16.1 kmh 30.03 in1016.9 mb 0.00 in0.0 mm 0.00 in0.0 mm 0.00 in0.0 mm
04:18 AM 26.8°F-2.9°C 17.3°F-8.2°C 71% 3.0 mph NNE4.8 kmh NNE 10.0 mph16.1 kmh 30.03 in1016.9 mb 0.00 in0.0 mm 0.00 in0.0 mm 0.00 in0.0 mm
04:20 AM 26.8°F-2.9°C 17.7°F-7.9°C 72% 4.0 mph NE6.4 kmh NE 10.0 mph16.1 kmh 30.03 in1016.9 mb 0.00 in0.0 mm 0.00 in0.0 mm 0.00 in0.0 mm
04:22 AM 26.8°F-2.9°C 17.7°F-7.9°C 72% 5.0 mph NE8.0 kmh NE 10.0 mph16.1 kmh 30.03 in1016.9 mb 0.00 in0.0 mm 0.00 in0.0 mm 0.00 in0.0 mm
04:24 AM 26.8°F-2.9°C 17.7°F-7.9°C 72% 2.0 mph E3.2 kmh E 9.0 mph14.5 kmh 30.02 in1016.6 mb 0.00 in0.0 mm 0.00 in0.0 mm 0.00 in0.0 mm
04:26 AM 26.8°F-2.9°C 17.7°F-7.9°C 72% 6.0 mph NE9.7 kmh NE 9.0 mph14.5 kmh 30.02 in1016.6 mb 0.00 in0.0 mm 0.00 in0.0 mm 0.00 in0.0 mm
04:28 AM 26.7°F-2.9°C 17.6°F-8.0°C 72% 6.0 mph NE9.7 kmh NE 9.0 mph14.5 kmh 30.02 in1016.6 mb 0.00 in0.0 mm 0.00 in0.0 mm 0.00 in0.0 mm
04:30 AM 26.7°F-2.9°C 17.6°F-8.0°C 72% 3.0 mph NE4.8 kmh NE 9.0 mph14.5 kmh 30.02 in1016.6 mb 0.00 in0.0 mm 0.00 in0.0 mm 0.00 in0.0 mm
04:32 AM 26.7°F-2.9°C 17.6°F-8.0°C 72% 3.0 mph N4.8 kmh N 9.0 mph14.5 kmh 30.02 in1016.6 mb 0.00 in0.0 mm 0.00 in0.0 mm 0.00 in0.0 mm
04:34 AM 26.7°F-2.9°C 17.6°F-8.0°C 72% 4.0 mph NNE6.4 kmh NNE 9.0 mph14.5 kmh 30.02 in1016.6 mb 0.00 in0.0 mm 0.00 in0.0 mm 0.00 in0.0 mm
04:36 AM 26.6°F-3.0°C 17.5°F-8.1°C 72% 3.0 mph NNE4.8 kmh NNE 9.0 mph14.5 kmh 30.02 in1016.6 mb 0.00 in0.0 mm 0.00 in0.0 mm 0.00 in0.0 mm
04:38 AM 26.6°F-3.0°C 17.5°F-8.1°C 72% 2.0 mph NE3.2 kmh NE 9.0 mph14.5 kmh 30.02 in1016.6 mb 0.00 in0.0 mm 0.00 in0.0 mm 0.00 in0.0 mm
04:40 AM 26.6°F-3.0°C 17.8°F-7.9°C 73% 2.0 mph NE3.2 kmh NE 9.0 mph14.5 kmh 30.02 in1016.6 mb 0.00 in0.0 mm 0.00 in0.0 mm 0.00 in0.0 mm
04:42 AM 26.6°F-3.0°C 17.8°F-7.9°C 73% 1.0 mph NNE1.6 kmh NNE 9.0 mph14.5 kmh 30.02 in1016.6 mb 0.00 in0.0 mm 0.00 in0.0 mm 0.00 in0.0 mm
04:44 AM 26.5°F-3.1°C 17.7°F-7.9°C 73% 5.0 mph NE8.0 kmh NE 9.0 mph14.5 kmh 30.02 in1016.6 mb 0.00 in0.0 mm 0.00 in0.0 mm 0.00 in0.0 mm
04:46 AM 26.5°F-3.1°C 17.4°F-8.1°C 72% 4.0 mph NE6.4 kmh NE 6.0 mph9.7 kmh 30.02 in1016.6 mb 0.00 in0.0 mm 0.00 in0.0 mm 0.00 in0.0 mm
04:48 AM 26.5°F-3.1°C 17.4°F-8.1°C 72% 3.0 mph N4.8 kmh N 6.0 mph9.7 kmh 30.02 in1016.6 mb 0.00 in0.0 mm 0.00 in0.0 mm 0.00 in0.0 mm
04:50 AM 26.5°F-3.1°C 17.7°F-7.9°C 73% 5.0 mph NE8.0 kmh NE 6.0 mph9.7 kmh 30.02 in1016.6 mb 0.00 in0.0 mm 0.00 in0.0 mm 0.00 in0.0 mm
04:52 AM 26.5°F-3.1°C 17.4°F-8.1°C 72% 3.0 mph NE4.8 kmh NE 7.0 mph11.3 kmh 30.02 in1016.6 mb 0.00 in0.0 mm 0.00 in0.0 mm 0.00 in0.0 mm
04:54 AM 26.4°F-3.1°C 17.3°F-8.2°C 72% 6.0 mph ENE9.7 kmh ENE 10.0 mph16.1 kmh 30.02 in1016.6 mb 0.00 in0.0 mm 0.00 in0.0 mm 0.00 in0.0 mm
04:56 AM 26.4°F-3.1°C 17.3°F-8.2°C 72% 4.0 mph NNE6.4 kmh NNE 10.0 mph16.1 kmh 30.02 in1016.6 mb 0.00 in0.0 mm 0.00 in0.0 mm 0.00 in0.0 mm
04:58 AM 26.4°F-3.1°C 17.3°F-8.2°C 72% 4.0 mph E6.4 kmh E 10.0 mph16.1 kmh 30.02 in1016.6 mb 0.00 in0.0 mm 0.00 in0.0 mm 0.00 in0.0 mm
05:00 AM 26.4°F-3.1°C 17.3°F-8.2°C 72% 3.0 mph NE4.8 kmh NE 10.0 mph16.1 kmh 30.02 in1016.6 mb 0.00 in0.0 mm 0.00 in0.0 mm 0.00 in0.0 mm
05:02 AM 26.3°F-3.2°C 17.2°F-8.2°C 72% 4.0 mph NNE6.4 kmh NNE 10.0 mph16.1 kmh 30.02 in1016.6 mb 0.00 in0.0 mm 0.00 in0.0 mm 0.00 in0.0 mm
05:04 AM 26.3°F-3.2°C 17.2°F-8.2°C 72% 2.0 mph ENE3.2 kmh ENE 10.0 mph16.1 kmh 30.02 in1016.6 mb 0.00 in0.0 mm 0.00 in0.0 mm 0.00 in0.0 mm
05:06 AM 26.3°F-3.2°C 17.2°F-8.2°C 72% 2.0 mph NE3.2 kmh NE 10.0 mph16.1 kmh 30.02 in1016.6 mb 0.00 in0.0 mm 0.00 in0.0 mm 0.00 in0.0 mm
05:08 AM 26.3°F-3.2°C 17.2°F-8.2°C 72% 3.0 mph NE4.8 kmh NE 10.0 mph16.1 kmh 30.02 in1016.6 mb 0.00 in0.0 mm 0.00 in0.0 mm 0.00 in0.0 mm
05:10 AM 26.2°F-3.2°C 17.1°F-8.3°C 72% 3.0 mph ENE4.8 kmh ENE 10.0 mph16.1 kmh 30.02 in1016.6 mb 0.00 in0.0 mm 0.00 in0.0 mm 0.00 in0.0 mm
05:12 AM 26.2°F-3.2°C 17.1°F-8.3°C 72% 3.0 mph NNE4.8 kmh NNE 10.0 mph16.1 kmh 30.02 in1016.6 mb 0.00 in0.0 mm 0.00 in0.0 mm 0.00 in0.0 mm
05:14 AM 26.1°F-3.3°C 17.0°F-8.3°C 72% 3.0 mph E4.8 kmh E 9.0 mph14.5 kmh 30.02 in1016.6 mb 0.00 in0.0 mm 0.00 in0.0 mm 0.00 in0.0 mm
05:16 AM 26.1°F-3.3°C 17.0°F-8.3°C 72% 4.0 mph ENE6.4 kmh ENE 9.0 mph14.5 kmh 30.02 in1016.6 mb 0.00 in0.0 mm 0.00 in0.0 mm 0.00 in0.0 mm
05:18 AM 26.1°F-3.3°C 17.0°F-8.3°C 72% 3.0 mph NE4.8 kmh NE 9.0 mph14.5 kmh 30.02 in1016.6 mb 0.00 in0.0 mm 0.00 in0.0 mm 0.00 in0.0 mm
05:20 AM 26.1°F-3.3°C 17.0°F-8.3°C 72% 4.0 mph NE6.4 kmh NE 9.0 mph14.5 kmh 30.02 in1016.6 mb 0.00 in0.0 mm 0.00 in0.0 mm 0.00 in0.0 mm
05:22 AM 26.0°F-3.3°C 16.9°F-8.4°C 72% 4.0 mph ENE6.4 kmh ENE 9.0 mph14.5 kmh 30.02 in1016.6 mb 0.00 in0.0 mm 0.00 in0.0 mm 0.00 in0.0 mm
05:24 AM 26.0°F-3.3°C 16.9°F-8.4°C 72% 4.0 mph NE6.4 kmh NE 9.0 mph14.5 kmh 30.02 in1016.6 mb 0.00 in0.0 mm 0.00 in0.0 mm 0.00 in0.0 mm
05:26 AM 26.0°F-3.3°C 16.9°F-8.4°C 72% 3.0 mph NE4.8 kmh NE 9.0 mph14.5 kmh 30.02 in1016.6 mb 0.00 in0.0 mm 0.00 in0.0 mm 0.00 in0.0 mm
05:28 AM 26.0°F-3.3°C 16.9°F-8.4°C 72% 7.0 mph NE11.3 kmh NE 9.0 mph14.5 kmh 30.02 in1016.6 mb 0.00 in0.0 mm 0.00 in0.0 mm 0.00 in0.0 mm
05:30 AM 26.0°F-3.3°C 16.9°F-8.4°C 72% 3.0 mph NE4.8 kmh NE 9.0 mph14.5 kmh 30.02 in1016.6 mb 0.00 in0.0 mm 0.00 in0.0 mm 0.00 in0.0 mm
05:32 AM 26.0°F-3.3°C 16.9°F-8.4°C 72% 1.0 mph NE1.6 kmh NE 9.0 mph14.5 kmh 30.02 in1016.6 mb 0.00 in0.0 mm 0.00 in0.0 mm 0.00 in0.0 mm
05:34 AM 25.9°F-3.4°C 17.2°F-8.2°C 73% 4.0 mph NE6.4 kmh NE 9.0 mph14.5 kmh 30.02 in1016.6 mb 0.00 in0.0 mm 0.00 in0.0 mm 0.00 in0.0 mm
05:36 AM 25.9°F-3.4°C 16.8°F-8.4°C 72% 3.0 mph NE4.8 kmh NE 9.0 mph14.5 kmh 30.02 in1016.6 mb 0.00 in0.0 mm 0.00 in0.0 mm 0.00 in0.0 mm
05:38 AM 25.8°F-3.4°C 17.1°F-8.3°C 73% 1.0 mph NE1.6 kmh NE 7.0 mph11.3 kmh 30.02 in1016.6 mb 0.00 in0.0 mm 0.00 in0.0 mm 0.00 in0.0 mm
05:40 AM 25.7°F-3.5°C 17.0°F-8.3°C 73% 2.0 mph NE3.2 kmh NE 8.0 mph12.9 kmh 30.02 in1016.6 mb 0.00 in0.0 mm 0.00 in0.0 mm 0.00 in0.0 mm
05:42 AM 25.7°F-3.5°C 17.0°F-8.3°C 73% 3.0 mph N4.8 kmh N 8.0 mph12.9 kmh 30.02 in1016.6 mb 0.00 in0.0 mm 0.00 in0.0 mm 0.00 in0.0 mm
05:44 AM 25.7°F-3.5°C 17.0°F-8.3°C 73% 3.0 mph NE4.8 kmh NE 8.0 mph12.9 kmh 30.02 in1016.6 mb 0.00 in0.0 mm 0.00 in0.0 mm 0.00 in0.0 mm
05:46 AM 25.7°F-3.5°C 17.0°F-8.3°C 73% 4.0 mph N6.4 kmh N 8.0 mph12.9 kmh 30.02 in1016.6 mb 0.00 in0.0 mm 0.00 in0.0 mm 0.00 in0.0 mm
05:48 AM 25.6°F-3.6°C 16.9°F-8.4°C 73% 2.0 mph NE3.2 kmh NE 8.0 mph12.9 kmh 30.02 in1016.6 mb 0.00 in0.0 mm 0.00 in0.0 mm 0.00 in0.0 mm
05:50 AM 25.6°F-3.6°C 16.9°F-8.4°C 73% 5.0 mph NE8.0 kmh NE 9.0 mph14.5 kmh 30.02 in1016.6 mb 0.00 in0.0 mm 0.00 in0.0 mm 0.00 in0.0 mm
05:52 AM 25.6°F-3.6°C 16.9°F-8.4°C 73% 3.0 mph ENE4.8 kmh ENE 9.0 mph14.5 kmh 30.01 in1016.3 mb 0.00 in0.0 mm 0.00 in0.0 mm 0.00 in0.0 mm
05:54 AM 25.6°F-3.6°C 16.9°F-8.4°C 73% 6.0 mph NE9.7 kmh NE 9.0 mph14.5 kmh 30.01 in1016.3 mb 0.00 in0.0 mm 0.00 in0.0 mm 0.00 in0.0 mm
05:56 AM 25.6°F-3.6°C 16.9°F-8.4°C 73% 3.0 mph NE4.8 kmh NE 9.0 mph14.5 kmh 30.01 in1016.3 mb 0.00 in0.0 mm 0.00 in0.0 mm 0.00 in0.0 mm
05:58 AM 25.6°F-3.6°C 16.9°F-8.4°C 73% 4.0 mph E6.4 kmh E 9.0 mph14.5 kmh 30.02 in1016.6 mb 0.00 in0.0 mm 0.00 in0.0 mm 0.00 in0.0 mm
06:00 AM 25.6°F-3.6°C 16.9°F-8.4°C 73% 1.0 mph NE1.6 kmh NE 9.0 mph14.5 kmh 30.01 in1016.3 mb 0.00 in0.0 mm 0.00 in0.0 mm 0.00 in0.0 mm
06:02 AM 25.6°F-3.6°C 16.9°F-8.4°C 73% 2.0 mph NNE3.2 kmh NNE 9.0 mph14.5 kmh 30.01 in1016.3 mb 0.00 in0.0 mm 0.00 in0.0 mm 0.00 in0.0 mm
06:04 AM 25.5°F-3.6°C 16.8°F-8.4°C 73% 3.0 mph NE4.8 kmh NE 9.0 mph14.5 kmh 30.01 in1016.3 mb 0.00 in0.0 mm 0.00 in0.0 mm 0.00 in0.0 mm
06:06 AM 25.5°F-3.6°C 16.8°F-8.4°C 73% 2.0 mph NNE3.2 kmh NNE 9.0 mph14.5 kmh 30.01 in1016.3 mb 0.00 in0.0 mm 0.00 in0.0 mm 0.00 in0.0 mm
06:08 AM 25.5°F-3.6°C 16.8°F-8.4°C 73% 1.0 mph NE1.6 kmh NE 9.0 mph14.5 kmh 30.01 in1016.3 mb 0.00 in0.0 mm 0.00 in0.0 mm 0.00 in0.0 mm
06:10 AM 25.4°F-3.7°C 16.7°F-8.5°C 73% 3.0 mph NE4.8 kmh NE 8.0 mph12.9 kmh 30.01 in1016.3 mb 0.00 in0.0 mm 0.00 in0.0 mm 0.00 in0.0 mm
06:12 AM 25.4°F-3.7°C 16.7°F-8.5°C 73% 3.0 mph NE4.8 kmh NE 8.0 mph12.9 kmh 30.01 in1016.3 mb 0.00 in0.0 mm 0.00 in0.0 mm 0.00 in0.0 mm
06:14 AM 25.4°F-3.7°C 16.7°F-8.5°C 73% 3.0 mph N4.8 kmh N 8.0 mph12.9 kmh 30.01 in1016.3 mb 0.00 in0.0 mm 0.00 in0.0 mm 0.00 in0.0 mm
06:16 AM 25.4°F-3.7°C 16.7°F-8.5°C 73% 1.0 mph N1.6 kmh N 8.0 mph12.9 kmh 30.01 in1016.3 mb 0.00 in0.0 mm 0.00 in0.0 mm 0.00 in0.0 mm
06:18 AM 25.4°F-3.7°C 16.7°F-8.5°C 73% 1.0 mph NE1.6 kmh NE 8.0 mph12.9 kmh 30.01 in1016.3 mb 0.00 in0.0 mm 0.00 in0.0 mm 0.00 in0.0 mm
06:20 AM 25.4°F-3.7°C 16.7°F-8.5°C 73% 4.0 mph E6.4 kmh E 7.0 mph11.3 kmh 30.01 in1016.3 mb 0.00 in0.0 mm 0.00 in0.0 mm 0.00 in0.0 mm
06:22 AM 25.3°F-3.7°C 16.6°F-8.6°C 73% 3.0 mph NNE4.8 kmh NNE 7.0 mph11.3 kmh 30.01 in1016.3 mb 0.00 in0.0 mm 0.00 in0.0 mm 0.00 in0.0 mm
06:24 AM 25.3°F-3.7°C 16.6°F-8.6°C 73% 2.0 mph NNE3.2 kmh NNE 7.0 mph11.3 kmh 30.01 in1016.3 mb 0.00 in0.0 mm 0.00 in0.0 mm 0.00 in0.0 mm
06:26 AM 25.3°F-3.7°C 16.6°F-8.6°C 73% 2.0 mph NE3.2 kmh NE 7.0 mph11.3 kmh 30.01 in1016.3 mb 0.00 in0.0 mm 0.00 in0.0 mm 0.00 in0.0 mm
06:28 AM 25.3°F-3.7°C 16.6°F-8.6°C 73% 4.0 mph NNW6.4 kmh NNW 7.0 mph11.3 kmh 30.01 in1016.3 mb 0.00 in0.0 mm 0.00 in0.0 mm 0.00 in0.0 mm
06:30 AM 25.3°F-3.7°C 16.6°F-8.6°C 73% 3.0 mph NE4.8 kmh NE 6.0 mph9.7 kmh 30.01 in1016.3 mb 0.00 in0.0 mm 0.00 in0.0 mm 0.00 in0.0 mm
06:32 AM 25.2°F-3.8°C 16.5°F-8.6°C 73% 2.0 mph NE3.2 kmh NE 6.0 mph9.7 kmh 30.02 in1016.6 mb 0.00 in0.0 mm 0.00 in0.0 mm 0.00 in0.0 mm
06:34 AM 25.2°F-3.8°C 16.5°F-8.6°C 73% 3.0 mph ENE4.8 kmh ENE 6.0 mph9.7 kmh 30.01 in1016.3 mb 0.00 in0.0 mm 0.00 in0.0 mm 0.00 in0.0 mm
06:36 AM 25.2°F-3.8°C 16.5°F-8.6°C 73% 2.0 mph NE3.2 kmh NE 6.0 mph9.7 kmh 30.01 in1016.3 mb 0.00 in0.0 mm 0.00 in0.0 mm 0.00 in0.0 mm
06:38 AM 25.2°F-3.8°C 16.5°F-8.6°C 73% 2.0 mph N3.2 kmh N 6.0 mph9.7 kmh 30.02 in1016.6 mb 0.00 in0.0 mm 0.00 in0.0 mm 0.00 in0.0 mm
06:40 AM 25.1°F-3.8°C 16.7°F-8.5°C 74% 3.0 mph NNE4.8 kmh NNE 5.0 mph8.0 kmh 30.01 in1016.3 mb 0.00 in0.0 mm 0.00 in0.0 mm 0.00 in0.0 mm
06:42 AM 25.1°F-3.8°C 16.7°F-8.5°C 74% 6.0 mph NE9.7 kmh NE 10.0 mph16.1 kmh 30.02 in1016.6 mb 0.00 in0.0 mm 0.00 in0.0 mm 0.00 in0.0 mm
06:44 AM 25.1°F-3.8°C 16.7°F-8.5°C 74% 2.0 mph N3.2 kmh N 10.0 mph16.1 kmh 30.02 in1016.6 mb 0.00 in0.0 mm 0.00 in0.0 mm 0.00 in0.0 mm
06:46 AM 25.1°F-3.8°C 16.7°F-8.5°C 74% 3.0 mph NE4.8 kmh NE 10.0 mph16.1 kmh 30.02 in1016.6 mb 0.00 in0.0 mm 0.00 in0.0 mm 0.00 in0.0 mm
06:48 AM 25.0°F-3.9°C 16.6°F-8.6°C 74% 3.0 mph 4.8 kmh 10.0 mph16.1 kmh 30.02 in1016.6 mb 0.00 in0.0 mm 0.00 in0.0 mm 0.00 in0.0 mm
06:50 AM 25.0°F-3.9°C 16.6°F-8.6°C 74% 3.0 mph NE4.8 kmh NE 10.0 mph16.1 kmh 30.02 in1016.6 mb 0.00 in0.0 mm 0.00 in0.0 mm 0.00 in0.0 mm
06:52 AM 24.9°F-3.9°C 16.5°F-8.6°C 74% 2.0 mph NNE3.2 kmh NNE 10.0 mph16.1 kmh 30.02 in1016.6 mb 0.00 in0.0 mm 0.00 in0.0 mm 0.00 in0.0 mm
06:54 AM 24.9°F-3.9°C 16.5°F-8.6°C 74% 5.0 mph NE8.0 kmh NE 10.0 mph16.1 kmh 30.02 in1016.6 mb 0.00 in0.0 mm 0.00 in0.0 mm 0.00 in0.0 mm
06:56 AM 24.9°F-3.9°C 16.5°F-8.6°C 74% 2.0 mph NNE3.2 kmh NNE 10.0 mph16.1 kmh 30.02 in1016.6 mb 0.00 in0.0 mm 0.00 in0.0 mm 0.00 in0.0 mm
06:58 AM 24.9°F-3.9°C 16.5°F-8.6°C 74% 3.0 mph NE4.8 kmh NE 10.0 mph16.1 kmh 30.02 in1016.6 mb 0.00 in0.0 mm 0.00 in0.0 mm 0.00 in0.0 mm
07:00 AM 24.8°F-4.0°C 16.4°F-8.7°C 74% 1.0 mph NE1.6 kmh NE 10.0 mph16.1 kmh 30.02 in1016.6 mb 0.00 in0.0 mm 0.00 in0.0 mm 0.00 in0.0 mm
07:02 AM 24.8°F-4.0°C 16.4°F-8.7°C 74% 3.0 mph NE4.8 kmh NE 7.0 mph11.3 kmh 30.02 in1016.6 mb 0.00 in0.0 mm 0.00 in0.0 mm 0.00 in0.0 mm
07:04 AM 24.7°F-4.1°C 16.3°F-8.7°C 74% 2.0 mph NE3.2 kmh NE 7.0 mph11.3 kmh 30.02 in1016.6 mb 0.00 in0.0 mm 0.00 in0.0 mm 0.00 in0.0 mm
07:06 AM 24.7°F-4.1°C 16.3°F-8.7°C 74% 5.0 mph N8.0 kmh N 7.0 mph11.3 kmh 30.02 in1016.6 mb 0.00 in0.0 mm 0.00 in0.0 mm 0.00 in0.0 mm
07:08 AM 24.7°F-4.1°C 16.7°F-8.5°C 75% 6.0 mph NE9.7 kmh NE 7.0 mph11.3 kmh 30.02 in1016.6 mb 0.00 in0.0 mm 0.00 in0.0 mm 0.00 in0.0 mm
07:10 AM 24.6°F-4.1°C 16.6°F-8.6°C 75% 6.0 mph NE9.7 kmh NE 7.0 mph11.3 kmh 30.02 in1016.6 mb 0.00 in0.0 mm 0.00 in0.0 mm 0.00 in0.0 mm
07:12 AM 24.6°F-4.1°C 16.6°F-8.6°C 75% 5.0 mph NE8.0 kmh NE 6.0 mph9.7 kmh 30.02 in1016.6 mb 0.00 in0.0 mm 0.00 in0.0 mm 0.00 in0.0 mm
07:14 AM 24.5°F-4.2°C 16.5°F-8.6°C 75% 6.0 mph NNE9.7 kmh NNE 6.0 mph9.7 kmh 30.02 in1016.6 mb 0.00 in0.0 mm 0.00 in0.0 mm 0.00 in0.0 mm
07:16 AM 24.5°F-4.2°C 16.5°F-8.6°C 75% 4.0 mph NE6.4 kmh NE 6.0 mph9.7 kmh 30.03 in1016.9 mb 0.00 in0.0 mm 0.00 in0.0 mm 0.00 in0.0 mm
07:18 AM 24.5°F-4.2°C 16.5°F-8.6°C 75% 2.0 mph NE3.2 kmh NE 10.0 mph16.1 kmh 30.02 in1016.6 mb 0.00 in0.0 mm 0.00 in0.0 mm 0.00 in0.0 mm
07:20 AM 24.5°F-4.2°C 16.5°F-8.6°C 75% 2.0 mph NE3.2 kmh NE 10.0 mph16.1 kmh 30.02 in1016.6 mb 0.00 in0.0 mm 0.00 in0.0 mm 0.00 in0.0 mm
07:22 AM 24.4°F-4.2°C 16.4°F-8.7°C 75% 3.0 mph NE4.8 kmh NE 10.0 mph16.1 kmh 30.02 in1016.6 mb 0.00 in0.0 mm 0.00 in0.0 mm 0.00 in0.0 mm
07:24 AM 24.4°F-4.2°C 16.4°F-8.7°C 75% 4.0 mph NE6.4 kmh NE 10.0 mph16.1 kmh 30.02 in1016.6 mb 0.00 in0.0 mm 0.00 in0.0 mm 0.00 in0.0 mm
07:26 AM 24.4°F-4.2°C 16.4°F-8.7°C 75% 3.0 mph NE4.8 kmh NE 10.0 mph16.1 kmh 30.02 in1016.6 mb 0.00 in0.0 mm 0.00 in0.0 mm 0.00 in0.0 mm
07:28 AM 24.4°F-4.2°C 16.4°F-8.7°C 75% 3.0 mph N4.8 kmh N 10.0 mph16.1 kmh 30.02 in1016.6 mb 0.00 in0.0 mm 0.00 in0.0 mm 0.00 in0.0 mm
07:30 AM 24.3°F-4.3°C 16.6°F-8.6°C 76% 3.0 mph NNE4.8 kmh NNE 10.0 mph16.1 kmh 30.02 in1016.6 mb 0.00 in0.0 mm 0.00 in0.0 mm 0.00 in0.0 mm
07:32 AM 24.3°F-4.3°C 16.6°F-8.6°C 76% 4.0 mph NE6.4 kmh NE 10.0 mph16.1 kmh 30.02 in1016.6 mb 0.00 in0.0 mm 0.00 in0.0 mm 0.00 in0.0 mm
07:34 AM 24.2°F-4.3°C 16.5°F-8.6°C 76% 4.0 mph NE6.4 kmh NE 10.0 mph16.1 kmh 30.02 in1016.6 mb 0.00 in0.0 mm 0.00 in0.0 mm 0.00 in0.0 mm
07:36 AM 24.2°F-4.3°C 16.5°F-8.6°C 76% 2.0 mph N3.2 kmh N 10.0 mph16.1 kmh 30.02 in1016.6 mb 0.00 in0.0 mm 0.00 in0.0 mm 0.00 in0.0 mm
07:38 AM 24.2°F-4.3°C 16.5°F-8.6°C 76% 5.0 mph NNE8.0 kmh NNE 8.0 mph12.9 kmh 30.02 in1016.6 mb 0.00 in0.0 mm 0.00 in0.0 mm 0.00 in0.0 mm
07:40 AM 24.2°F-4.3°C 16.5°F-8.6°C 76% 3.0 mph N4.8 kmh N 8.0 mph12.9 kmh 30.02 in1016.6 mb 0.00 in0.0 mm 0.00 in0.0 mm 0.00 in0.0 mm
07:42 AM 24.2°F-4.3°C 16.5°F-8.6°C 76% 4.0 mph NE6.4 kmh NE 8.0 mph12.9 kmh 30.02 in1016.6 mb 0.00 in0.0 mm 0.00 in0.0 mm 0.00 in0.0 mm
07:44 AM 24.2°F-4.3°C 16.5°F-8.6°C 76% 3.0 mph NE4.8 kmh NE 8.0 mph12.9 kmh 30.02 in1016.6 mb 0.00 in0.0 mm 0.00 in0.0 mm 0.00 in0.0 mm
07:46 AM 24.1°F-4.4°C 16.4°F-8.7°C 76% 3.0 mph NNE4.8 kmh NNE 8.0 mph12.9 kmh 30.02 in1016.6 mb 0.00 in0.0 mm 0.00 in0.0 mm 0.00 in0.0 mm
07:48 AM 24.1°F-4.4°C 16.4°F-8.7°C 76% 3.0 mph NNE4.8 kmh NNE 8.0 mph12.9 kmh 30.03 in1016.9 mb 0.00 in0.0 mm 0.00 in0.0 mm 0.00 in0.0 mm
07:50 AM 24.1°F-4.4°C 16.7°F-8.5°C 77% 3.0 mph N4.8 kmh N 8.0 mph12.9 kmh 30.03 in1016.9 mb 0.00 in0.0 mm 0.00 in0.0 mm 0.00 in0.0 mm
07:52 AM 24.0°F-4.4°C 16.6°F-8.6°C 77% 4.0 mph NE6.4 kmh NE 8.0 mph12.9 kmh 30.03 in1016.9 mb 0.00 in0.0 mm 0.00 in0.0 mm 0.00 in0.0 mm
07:54 AM 24.0°F-4.4°C 16.6°F-8.6°C 77% 8.0 mph N12.9 kmh N 8.0 mph12.9 kmh 30.02 in1016.6 mb 0.00 in0.0 mm 0.00 in0.0 mm 0.00 in0.0 mm
07:56 AM 24.0°F-4.4°C 16.6°F-8.6°C 77% 2.0 mph 3.2 kmh 8.0 mph12.9 kmh 30.03 in1016.9 mb 0.00 in0.0 mm 0.00 in0.0 mm 0.00 in0.0 mm
07:58 AM 24.0°F-4.4°C 16.6°F-8.6°C 77% 3.0 mph NE4.8 kmh NE 8.0 mph12.9 kmh 30.03 in1016.9 mb 0.00 in0.0 mm 0.00 in0.0 mm 0.00 in0.0 mm
08:00 AM 24.0°F-4.4°C 16.6°F-8.6°C 77% 4.0 mph NE6.4 kmh NE 8.0 mph12.9 kmh 30.02 in1016.6 mb 0.00 in0.0 mm 0.00 in0.0 mm 0.00 in0.0 mm
08:02 AM 24.0°F-4.4°C 16.6°F-8.6°C 77% 2.0 mph 3.2 kmh 8.0 mph12.9 kmh 30.02 in1016.6 mb 0.00 in0.0 mm 0.00 in0.0 mm 0.00 in0.0 mm
08:04 AM 24.0°F-4.4°C 16.6°F-8.6°C 77% 3.0 mph NE4.8 kmh NE 8.0 mph12.9 kmh 30.02 in1016.6 mb 0.00 in0.0 mm 0.00 in0.0 mm 0.00 in0.0 mm
08:06 AM 24.0°F-4.4°C 16.6°F-8.6°C 77% 3.0 mph N4.8 kmh N 8.0 mph12.9 kmh 30.02 in1016.6 mb 0.00 in0.0 mm 0.00 in0.0 mm 0.00 in0.0 mm
08:08 AM 24.0°F-4.4°C 16.6°F-8.6°C 77% 3.0 mph NE4.8 kmh NE 7.0 mph11.3 kmh 30.02 in1016.6 mb 0.00 in0.0 mm 0.00 in0.0 mm 0.00 in0.0 mm
08:10 AM 23.9°F-4.5°C 16.5°F-8.6°C 77% 3.0 mph NE4.8 kmh NE 7.0 mph11.3 kmh 30.02 in1016.6 mb 0.00 in0.0 mm 0.00 in0.0 mm 0.00 in0.0 mm
08:12 AM 23.9°F-4.5°C 16.5°F-8.6°C 77% 2.0 mph NNE3.2 kmh NNE 7.0 mph11.3 kmh 30.02 in1016.6 mb 0.00 in0.0 mm 0.00 in0.0 mm 0.00 in0.0 mm
08:14 AM 23.9°F-4.5°C 16.5°F-8.6°C 77% 1.0 mph N1.6 kmh N 7.0 mph11.3 kmh 30.02 in1016.6 mb 0.00 in0.0 mm 0.00 in0.0 mm 0.00 in0.0 mm
08:16 AM 23.9°F-4.5°C 16.5°F-8.6°C 77% 1.0 mph NE1.6 kmh NE 7.0 mph11.3 kmh 30.02 in1016.6 mb 0.00 in0.0 mm 0.00 in0.0 mm 0.00 in0.0 mm
08:18 AM 23.9°F-4.5°C 16.5°F-8.6°C 77% 3.0 mph ENE4.8 kmh ENE 5.0 mph8.0 kmh 30.02 in1016.6 mb 0.00 in0.0 mm 0.00 in0.0 mm 0.00 in0.0 mm
08:20 AM 23.9°F-4.5°C 16.5°F-8.6°C 77% 5.0 mph NE8.0 kmh NE 5.0 mph8.0 kmh 30.02 in1016.6 mb 0.00 in0.0 mm 0.00 in0.0 mm 0.00 in0.0 mm
08:22 AM 23.9°F-4.5°C 16.8°F-8.4°C 78% 3.0 mph NNW4.8 kmh NNW 5.0 mph8.0 kmh 30.02 in1016.6 mb 0.00 in0.0 mm 0.00 in0.0 mm 0.00 in0.0 mm
08:24 AM 23.8°F-4.6°C 16.7°F-8.5°C 78% 2.0 mph NE3.2 kmh NE 5.0 mph8.0 kmh 30.02 in1016.6 mb 0.00 in0.0 mm 0.00 in0.0 mm 0.00 in0.0 mm
08:26 AM 23.9°F-4.5°C 16.5°F-8.6°C 77% 1.0 mph NE1.6 kmh NE 5.0 mph8.0 kmh 30.02 in1016.6 mb 0.00 in0.0 mm 0.00 in0.0 mm 0.00 in0.0 mm
08:28 AM 23.9°F-4.5°C 16.8°F-8.4°C 78% 2.0 mph NE3.2 kmh NE 7.0 mph11.3 kmh 30.02 in1016.6 mb 0.00 in0.0 mm 0.00 in0.0 mm 0.00 in0.0 mm
08:30 AM 23.9°F-4.5°C 16.8°F-8.4°C 78% 3.0 mph NE4.8 kmh NE 9.0 mph14.5 kmh 30.02 in1016.6 mb 0.00 in0.0 mm 0.00 in0.0 mm 0.00 in0.0 mm
08:32 AM 23.9°F-4.5°C 16.8°F-8.4°C 78% 3.0 mph N4.8 kmh N 9.0 mph14.5 kmh 30.02 in1016.6 mb 0.00 in0.0 mm 0.00 in0.0 mm 0.00 in0.0 mm
08:34 AM 23.9°F-4.5°C 16.8°F-8.4°C 78% 2.0 mph NE3.2 kmh NE 9.0 mph14.5 kmh 30.02 in1016.6 mb 0.00 in0.0 mm 0.00 in0.0 mm 0.00 in0.0 mm
08:36 AM 23.9°F-4.5°C 16.8°F-8.4°C 78% 3.0 mph NE4.8 kmh NE 9.0 mph14.5 kmh 30.02 in1016.6 mb 0.00 in0.0 mm 0.00 in0.0 mm 0.00 in0.0 mm
08:38 AM 23.9°F-4.5°C 16.8°F-8.4°C 78% 5.0 mph ENE8.0 kmh ENE 9.0 mph14.5 kmh 30.02 in1016.6 mb 0.00 in0.0 mm 0.00 in0.0 mm 0.00 in0.0 mm
08:40 AM 23.9°F-4.5°C 16.8°F-8.4°C 78% 3.0 mph NE4.8 kmh NE 9.0 mph14.5 kmh 30.02 in1016.6 mb 0.00 in0.0 mm 0.00 in0.0 mm 0.00 in0.0 mm
08:42 AM 23.9°F-4.5°C 16.8°F-8.4°C 78% 2.0 mph NE3.2 kmh NE 9.0 mph14.5 kmh 30.02 in1016.6 mb 0.00 in0.0 mm 0.00 in0.0 mm 0.00 in0.0 mm
08:44 AM 23.9°F-4.5°C 16.8°F-8.4°C 78% 2.0 mph NE3.2 kmh NE 9.0 mph14.5 kmh 30.02 in1016.6 mb 0.00 in0.0 mm 0.00 in0.0 mm 0.00 in0.0 mm
08:46 AM 23.9°F-4.5°C 16.8°F-8.4°C 78% 2.0 mph N3.2 kmh N 9.0 mph14.5 kmh 30.02 in1016.6 mb 0.00 in0.0 mm 0.00 in0.0 mm 0.00 in0.0 mm
08:48 AM 24.0°F-4.4°C 16.9°F-8.4°C 78% 4.0 mph NNE6.4 kmh NNE 9.0 mph14.5 kmh 30.02 in1016.6 mb 0.00 in0.0 mm 0.00 in0.0 mm 0.00 in0.0 mm
08:50 AM 24.0°F-4.4°C 16.9°F-8.4°C 78% 2.0 mph NE3.2 kmh NE 7.0 mph11.3 kmh 30.02 in1016.6 mb 0.00 in0.0 mm 0.00 in0.0 mm 0.00 in0.0 mm
08:52 AM 24.1°F-4.4°C 17.0°F-8.3°C 78% 3.0 mph NNE4.8 kmh NNE 7.0 mph11.3 kmh 30.01 in1016.3 mb 0.00 in0.0 mm 0.00 in0.0 mm 0.00 in0.0 mm
08:54 AM 24.2°F-4.3°C 17.1°F-8.3°C 78% 4.0 mph NE6.4 kmh NE 8.0 mph12.9 kmh 30.01 in1016.3 mb 0.00 in0.0 mm 0.00 in0.0 mm 0.00 in0.0 mm
08:56 AM 24.3°F-4.3°C 17.2°F-8.2°C 78% 3.0 mph NE4.8 kmh NE 8.0 mph12.9 kmh 30.01 in1016.3 mb 0.00 in0.0 mm 0.00 in0.0 mm 0.00 in0.0 mm
08:58 AM 24.4°F-4.2°C 17.0°F-8.3°C 77% 4.0 mph NE6.4 kmh NE 8.0 mph12.9 kmh 30.01 in1016.3 mb 0.00 in0.0 mm 0.00 in0.0 mm 0.00 in0.0 mm
09:00 AM 24.6°F-4.1°C 17.5°F-8.1°C 78% 5.0 mph NE8.0 kmh NE 8.0 mph12.9 kmh 30.01 in1016.3 mb 0.00 in0.0 mm 0.00 in0.0 mm 0.00 in0.0 mm
09:02 AM 24.8°F-4.0°C 17.4°F-8.1°C 77% 3.0 mph NE4.8 kmh NE 8.0 mph12.9 kmh 30.01 in1016.3 mb 0.00 in0.0 mm 0.00 in0.0 mm 0.00 in0.0 mm
09:04 AM 24.9°F-3.9°C 17.5°F-8.1°C 77% 4.0 mph NNE6.4 kmh NNE 8.0 mph12.9 kmh 30.01 in1016.3 mb 0.00 in0.0 mm 0.00 in0.0 mm 0.00 in0.0 mm
09:06 AM 25.2°F-3.8°C 17.8°F-7.9°C 77% 3.0 mph NE4.8 kmh NE 8.0 mph12.9 kmh 30.01 in1016.3 mb 0.00 in0.0 mm 0.00 in0.0 mm 0.00 in0.0 mm
09:08 AM 25.3°F-3.7°C 17.9°F-7.8°C 77% 3.0 mph NE4.8 kmh NE 8.0 mph12.9 kmh 30.01 in1016.3 mb 0.00 in0.0 mm 0.00 in0.0 mm 0.00 in0.0 mm
09:10 AM 25.5°F-3.6°C 17.8°F-7.9°C 76% 4.0 mph NE6.4 kmh NE 8.0 mph12.9 kmh 30.01 in1016.3 mb 0.00 in0.0 mm 0.00 in0.0 mm 0.00 in0.0 mm
09:12 AM 25.7°F-3.5°C 17.9°F-7.8°C 76% 6.0 mph NNE9.7 kmh NNE 8.0 mph12.9 kmh 30.00 in1015.9 mb 0.00 in0.0 mm 0.00 in0.0 mm 0.00 in0.0 mm
09:14 AM 25.9°F-3.4°C 18.1°F-7.7°C 76% 2.0 mph NE3.2 kmh NE 7.0 mph11.3 kmh 30.00 in1015.9 mb 0.00 in0.0 mm 0.00 in0.0 mm 0.00 in0.0 mm
09:16 AM 26.1°F-3.3°C 18.3°F-7.6°C 76% 5.0 mph N8.0 kmh N 9.0 mph14.5 kmh 30.00 in1015.9 mb 0.00 in0.0 mm 0.00 in0.0 mm 0.00 in0.0 mm
09:18 AM 26.3°F-3.2°C 18.5°F-7.5°C 76% 4.0 mph NE6.4 kmh NE 9.0 mph14.5 kmh 30.00 in1015.9 mb 0.00 in0.0 mm 0.00 in0.0 mm 0.00 in0.0 mm
09:20 AM 26.5°F-3.1°C 18.4°F-7.6°C 75% 3.0 mph NNE4.8 kmh NNE 9.0 mph14.5 kmh 30.00 in1015.9 mb 0.00 in0.0 mm 0.00 in0.0 mm 0.00 in0.0 mm
09:22 AM 26.7°F-2.9°C 18.6°F-7.4°C 75% 3.0 mph NE4.8 kmh NE 10.0 mph16.1 kmh 30.01 in1016.3 mb 0.00 in0.0 mm 0.00 in0.0 mm 0.00 in0.0 mm
09:24 AM 26.8°F-2.9°C 18.3°F-7.6°C 74% 9.0 mph NE14.5 kmh NE 10.0 mph16.1 kmh 30.00 in1015.9 mb 0.00 in0.0 mm 0.00 in0.0 mm 0.00 in0.0 mm
09:26 AM 26.9°F-2.8°C 18.4°F-7.6°C 74% 6.0 mph NE9.7 kmh NE 13.0 mph20.9 kmh 30.00 in1015.9 mb 0.00 in0.0 mm 0.00 in0.0 mm 0.00 in0.0 mm
09:28 AM 26.9°F-2.8°C 18.1°F-7.7°C 73% 9.0 mph NNE14.5 kmh NNE 13.0 mph20.9 kmh 30.01 in1016.3 mb 0.00 in0.0 mm 0.00 in0.0 mm 0.00 in0.0 mm
09:30 AM 27.0°F-2.8°C 18.5°F-7.5°C 74% 2.0 mph NNE3.2 kmh NNE 13.0 mph20.9 kmh 30.00 in1015.9 mb 0.00 in0.0 mm 0.00 in0.0 mm 0.00 in0.0 mm
09:32 AM 27.1°F-2.7°C 18.3°F-7.6°C 73% 4.0 mph N6.4 kmh N 14.0 mph22.5 kmh 30.01 in1016.3 mb 0.00 in0.0 mm 0.00 in0.0 mm 0.00 in0.0 mm
09:34 AM 27.3°F-2.6°C 18.5°F-7.5°C 73% 3.0 mph NNE4.8 kmh NNE 14.0 mph22.5 kmh 30.01 in1016.3 mb 0.00 in0.0 mm 0.00 in0.0 mm 0.00 in0.0 mm
09:36 AM 27.5°F-2.5°C 18.7°F-7.4°C 73% 3.0 mph NE4.8 kmh NE 14.0 mph22.5 kmh 30.01 in1016.3 mb 0.00 in0.0 mm 0.00 in0.0 mm 0.00 in0.0 mm
09:38 AM 27.6°F-2.4°C 18.8°F-7.3°C 73% 3.0 mph NW4.8 kmh NW 14.0 mph22.5 kmh 30.01 in1016.3 mb 0.00 in0.0 mm 0.00 in0.0 mm 0.00 in0.0 mm
09:40 AM 27.8°F-2.3°C 18.6°F-7.4°C 72% 5.0 mph NNE8.0 kmh NNE 14.0 mph22.5 kmh 30.02 in1016.6 mb 0.00 in0.0 mm 0.00 in0.0 mm 0.00 in0.0 mm
09:42 AM 27.9°F-2.3°C 18.7°F-7.4°C 72% 2.0 mph NE3.2 kmh NE 14.0 mph22.5 kmh 30.02 in1016.6 mb 0.00 in0.0 mm 0.00 in0.0 mm 0.00 in0.0 mm
09:44 AM 28.1°F-2.2°C 18.9°F-7.3°C 72% 6.0 mph NE9.7 kmh NE 14.0 mph22.5 kmh 30.01 in1016.3 mb 0.00 in0.0 mm 0.00 in0.0 mm 0.00 in0.0 mm
09:46 AM 28.3°F-2.1°C 19.1°F-7.2°C 72% 3.0 mph NE4.8 kmh NE 14.0 mph22.5 kmh 30.01 in1016.3 mb 0.00 in0.0 mm 0.00 in0.0 mm 0.00 in0.0 mm
09:48 AM 28.5°F-1.9°C 19.3°F-7.1°C 72% 4.0 mph N6.4 kmh N 14.0 mph22.5 kmh 30.01 in1016.3 mb 0.00 in0.0 mm 0.00 in0.0 mm 0.00 in0.0 mm
09:50 AM 28.7°F-1.8°C 19.2°F-7.1°C 71% 4.0 mph N6.4 kmh N 14.0 mph22.5 kmh 30.01 in1016.3 mb 0.00 in0.0 mm 0.00 in0.0 mm 0.00 in0.0 mm
09:52 AM 28.9°F-1.7°C 19.3°F-7.1°C 71% 3.0 mph N4.8 kmh N 7.0 mph11.3 kmh 30.02 in1016.6 mb 0.00 in0.0 mm 0.00 in0.0 mm 0.00 in0.0 mm
09:54 AM 29.0°F-1.7°C 19.1°F-7.2°C 70% 3.0 mph NE4.8 kmh NE 7.0 mph11.3 kmh 30.01 in1016.3 mb 0.00 in0.0 mm 0.00 in0.0 mm 0.00 in0.0 mm
09:56 AM 29.0°F-1.7°C 18.7°F-7.4°C 69% 4.0 mph NNW6.4 kmh NNW 8.0 mph12.9 kmh 30.01 in1016.3 mb 0.00 in0.0 mm 0.00 in0.0 mm 0.00 in0.0 mm
09:58 AM 29.2°F-1.6°C 19.3°F-7.1°C 70% 1.0 mph N1.6 kmh N 8.0 mph12.9 kmh 30.02 in1016.6 mb 0.00 in0.0 mm 0.00 in0.0 mm 0.00 in0.0 mm
10:00 AM 29.4°F-1.4°C 19.5°F-6.9°C 70% 4.0 mph NNE6.4 kmh NNE 8.0 mph12.9 kmh 30.02 in1016.6 mb 0.00 in0.0 mm 0.00 in0.0 mm 0.00 in0.0 mm
10:02 AM 29.6°F-1.3°C 19.7°F-6.8°C 70% 4.0 mph 6.4 kmh 8.0 mph12.9 kmh 30.02 in1016.6 mb 0.00 in0.0 mm 0.00 in0.0 mm 0.00 in0.0 mm
10:04 AM 29.7°F-1.3°C 19.4°F-7.0°C 69% 5.0 mph ENE8.0 kmh ENE 8.0 mph12.9 kmh 30.02 in1016.6 mb 0.00 in0.0 mm 0.00 in0.0 mm 0.00 in0.0 mm
10:06 AM 29.7°F-1.3°C 19.0°F-7.2°C 68% 6.0 mph N9.7 kmh N 8.0 mph12.9 kmh 30.02 in1016.6 mb 0.00 in0.0 mm 0.00 in0.0 mm 0.00 in0.0 mm
10:08 AM 29.8°F-1.2°C 19.5°F-6.9°C 69% 4.0 mph N6.4 kmh N 8.0 mph12.9 kmh 30.02 in1016.6 mb 0.00 in0.0 mm 0.00 in0.0 mm 0.00 in0.0 mm
10:10 AM 29.9°F-1.2°C 19.2°F-7.1°C 68% 5.0 mph NE8.0 kmh NE 8.0 mph12.9 kmh 30.02 in1016.6 mb 0.00 in0.0 mm 0.00 in0.0 mm 0.00 in0.0 mm
10:12 AM 30.0°F-1.1°C 19.3°F-7.1°C 68% 4.0 mph NNW6.4 kmh NNW 8.0 mph12.9 kmh 30.02 in1016.6 mb 0.00 in0.0 mm 0.00 in0.0 mm 0.00 in0.0 mm
10:14 AM 30.1°F-1.1°C 19.4°F-7.0°C 68% 4.0 mph N6.4 kmh N 8.0 mph12.9 kmh 30.02 in1016.6 mb 0.00 in0.0 mm 0.00 in0.0 mm 0.00 in0.0 mm
10:16 AM 30.2°F-1.0°C 19.1°F-7.2°C 67% 5.0 mph N8.0 kmh N 8.0 mph12.9 kmh 30.02 in1016.6 mb 0.00 in0.0 mm 0.00 in0.0 mm 0.00 in0.0 mm
10:18 AM 30.2°F-1.0°C 19.1°F-7.2°C 67% 3.0 mph NE4.8 kmh NE 10.0 mph16.1 kmh 30.02 in1016.6 mb 0.00 in0.0 mm 0.00 in0.0 mm 0.00 in0.0 mm
10:20 AM 30.3°F-0.9°C 19.2°F-7.1°C 67% 6.0 mph NE9.7 kmh NE 10.0 mph16.1 kmh 30.02 in1016.6 mb 0.00 in0.0 mm 0.00 in0.0 mm 0.00 in0.0 mm
10:22 AM 30.3°F-0.9°C 19.2°F-7.1°C 67% 5.0 mph NE8.0 kmh NE 10.0 mph16.1 kmh 30.01 in1016.3 mb 0.00 in0.0 mm 0.00 in0.0 mm 0.00 in0.0 mm
10:24 AM 30.4°F-0.9°C 19.0°F-7.2°C 66% 4.0 mph N6.4 kmh N 10.0 mph16.1 kmh 30.01 in1016.3 mb 0.00 in0.0 mm 0.00 in0.0 mm 0.00 in0.0 mm
10:26 AM 30.5°F-0.8°C 19.4°F-7.0°C 67% 7.0 mph N11.3 kmh N 10.0 mph16.1 kmh 30.01 in1016.3 mb 0.00 in0.0 mm 0.00 in0.0 mm 0.00 in0.0 mm
10:28 AM 30.6°F-0.8°C 19.5°F-6.9°C 67% 4.0 mph 6.4 kmh 10.0 mph16.1 kmh 30.01 in1016.3 mb 0.00 in0.0 mm 0.00 in0.0 mm 0.00 in0.0 mm
10:30 AM 30.7°F-0.7°C 19.2°F-7.1°C 66% 3.0 mph NE4.8 kmh NE 10.0 mph16.1 kmh 30.01 in1016.3 mb 0.00 in0.0 mm 0.00 in0.0 mm 0.00 in0.0 mm
10:32 AM 30.8°F-0.7°C 19.3°F-7.1°C 66% 3.0 mph NNW4.8 kmh NNW 10.0 mph16.1 kmh 30.01 in1016.3 mb 0.00 in0.0 mm 0.00 in0.0 mm 0.00 in0.0 mm
10:34 AM 30.9°F-0.6°C 19.4°F-7.0°C 66% 4.0 mph ENE6.4 kmh ENE 10.0 mph16.1 kmh 30.01 in1016.3 mb 0.00 in0.0 mm 0.00 in0.0 mm 0.00 in0.0 mm
10:36 AM 31.0°F-0.6°C 19.5°F-6.9°C 66% 5.0 mph N8.0 kmh N 10.0 mph16.1 kmh 30.02 in1016.6 mb 0.00 in0.0 mm 0.00 in0.0 mm 0.00 in0.0 mm
10:38 AM 31.2°F-0.4°C 19.3°F-7.1°C 65% 7.0 mph NE11.3 kmh NE 10.0 mph16.1 kmh 30.02 in1016.6 mb 0.00 in0.0 mm 0.00 in0.0 mm 0.00 in0.0 mm
10:40 AM 31.1°F-0.5°C 19.2°F-7.1°C 65% 5.0 mph NE8.0 kmh NE 10.0 mph16.1 kmh 30.02 in1016.6 mb 0.00 in0.0 mm 0.00 in0.0 mm 0.00 in0.0 mm
10:42 AM 31.1°F-0.5°C 19.2°F-7.1°C 65% 6.0 mph N9.7 kmh N 10.0 mph16.1 kmh 30.02 in1016.6 mb 0.00 in0.0 mm 0.00 in0.0 mm 0.00 in0.0 mm
10:44 AM 31.1°F-0.5°C 18.9°F-7.3°C 64% 6.0 mph NE9.7 kmh NE 14.0 mph22.5 kmh 30.02 in1016.6 mb 0.00 in0.0 mm 0.00 in0.0 mm 0.00 in0.0 mm
10:46 AM 31.0°F-0.6°C 19.1°F-7.2°C 65% 3.0 mph NE4.8 kmh NE 14.0 mph22.5 kmh 30.01 in1016.3 mb 0.00 in0.0 mm 0.00 in0.0 mm 0.00 in0.0 mm
10:48 AM 31.1°F-0.5°C 19.2°F-7.1°C 65% 4.0 mph NE6.4 kmh NE 14.0 mph22.5 kmh 30.01 in1016.3 mb 0.00 in0.0 mm 0.00 in0.0 mm 0.00 in0.0 mm
10:50 AM 31.2°F-0.4°C 19.0°F-7.2°C 64% 5.0 mph NE8.0 kmh NE 14.0 mph22.5 kmh 30.01 in1016.3 mb 0.00 in0.0 mm 0.00 in0.0 mm 0.00 in0.0 mm
10:52 AM 31.3°F-0.4°C 19.4°F-7.0°C 65% 3.0 mph N4.8 kmh N 14.0 mph22.5 kmh 30.01 in1016.3 mb 0.00 in0.0 mm 0.00 in0.0 mm 0.00 in0.0 mm
10:54 AM 31.4°F-0.3°C 19.5°F-6.9°C 65% 3.0 mph N4.8 kmh N 14.0 mph22.5 kmh 30.01 in1016.3 mb 0.00 in0.0 mm 0.00 in0.0 mm 0.00 in0.0 mm
10:56 AM 31.5°F-0.3°C 19.6°F-6.9°C 65% 9.0 mph E14.5 kmh E 14.0 mph22.5 kmh 30.01 in1016.3 mb 0.00 in0.0 mm 0.00 in0.0 mm 0.00 in0.0 mm
10:58 AM 31.6°F-0.2°C 19.3°F-7.1°C 64% 10.0 mph ENE16.1 kmh ENE 14.0 mph22.5 kmh 30.01 in1016.3 mb 0.00 in0.0 mm 0.00 in0.0 mm 0.00 in0.0 mm
11:00 AM 31.6°F-0.2°C 19.3°F-7.1°C 64% 6.0 mph NE9.7 kmh NE 14.0 mph22.5 kmh 30.01 in1016.3 mb 0.00 in0.0 mm 0.00 in0.0 mm 0.00 in0.0 mm
11:02 AM 31.8°F-0.1°C 19.9°F-6.7°C 65% 5.0 mph NE8.0 kmh NE 14.0 mph22.5 kmh 30.01 in1016.3 mb 0.00 in0.0 mm 0.00 in0.0 mm 0.00 in0.0 mm
11:04 AM 32.0°F0.0°C 19.7°F-6.8°C 64% 6.0 mph N9.7 kmh N 10.0 mph16.1 kmh 30.01 in1016.3 mb 0.00 in0.0 mm 0.00 in0.0 mm 0.00 in0.0 mm
11:06 AM 32.0°F0.0°C 19.3°F-7.1°C 63% 9.0 mph NE14.5 kmh NE 10.0 mph16.1 kmh 30.01 in1016.3 mb 0.00 in0.0 mm 0.00 in0.0 mm 0.00 in0.0 mm
11:08 AM 32.1°F0.1°C 19.4°F-7.0°C 63% 5.0 mph NNE8.0 kmh NNE 10.0 mph16.1 kmh 30.01 in1016.3 mb 0.00 in0.0 mm 0.00 in0.0 mm 0.00 in0.0 mm
11:10 AM 32.2°F0.1°C 19.5°F-6.9°C 63% 3.0 mph NW4.8 kmh NW 10.0 mph16.1 kmh 30.01 in1016.3 mb 0.00 in0.0 mm 0.00 in0.0 mm 0.00 in0.0 mm
11:12 AM 32.4°F0.2°C 19.7°F-6.8°C 63% 2.0 mph N3.2 kmh N 10.0 mph16.1 kmh 30.01 in1016.3 mb 0.00 in0.0 mm 0.00 in0.0 mm 0.00 in0.0 mm
11:14 AM 32.6°F0.3°C 19.9°F-6.7°C 63% 9.0 mph NE14.5 kmh NE 13.0 mph20.9 kmh 30.01 in1016.3 mb 0.00 in0.0 mm 0.00 in0.0 mm 0.00 in0.0 mm
11:16 AM 32.7°F0.4°C 19.6°F-6.9°C 62% 5.0 mph NE8.0 kmh NE 13.0 mph20.9 kmh 30.01 in1016.3 mb 0.00 in0.0 mm 0.00 in0.0 mm 0.00 in0.0 mm
11:18 AM 32.8°F0.4°C 20.1°F-6.6°C 63% 5.0 mph NE8.0 kmh NE 13.0 mph20.9 kmh 30.01 in1016.3 mb 0.00 in0.0 mm 0.00 in0.0 mm 0.00 in0.0 mm
11:20 AM 32.9°F0.5°C 19.8°F-6.8°C 62% 8.0 mph N12.9 kmh N 13.0 mph20.9 kmh 30.01 in1016.3 mb 0.00 in0.0 mm 0.00 in0.0 mm 0.00 in0.0 mm
11:22 AM 33.1°F0.6°C 20.4°F-6.4°C 63% 3.0 mph NNE4.8 kmh NNE 13.0 mph20.9 kmh 30.01 in1016.3 mb 0.00 in0.0 mm 0.00 in0.0 mm 0.00 in0.0 mm
11:24 AM 33.3°F0.7°C 20.1°F-6.6°C 62% 5.0 mph N8.0 kmh N 13.0 mph20.9 kmh 30.01 in1016.3 mb 0.00 in0.0 mm 0.00 in0.0 mm 0.00 in0.0 mm
11:26 AM 33.5°F0.8°C 19.9°F-6.7°C 61% 5.0 mph N8.0 kmh N 13.0 mph20.9 kmh 30.01 in1016.3 mb 0.00 in0.0 mm 0.00 in0.0 mm 0.00 in0.0 mm
11:28 AM 33.6°F0.9°C 20.4°F-6.4°C 62% 3.0 mph NE4.8 kmh NE 13.0 mph20.9 kmh 30.01 in1016.3 mb 0.00 in0.0 mm 0.00 in0.0 mm 0.00 in0.0 mm
11:30 AM 33.6°F0.9°C 20.0°F-6.7°C 61% 5.0 mph N8.0 kmh N 13.0 mph20.9 kmh 30.01 in1016.3 mb 0.00 in0.0 mm 0.00 in0.0 mm 0.00 in0.0 mm
11:32 AM 33.6°F0.9°C 20.0°F-6.7°C 61% 5.0 mph NE8.0 kmh NE 13.0 mph20.9 kmh 30.01 in1016.3 mb 0.00 in0.0 mm 0.00 in0.0 mm 0.00 in0.0 mm
11:34 AM 33.7°F0.9°C 20.1°F-6.6°C 61% 3.0 mph ENE4.8 kmh ENE 10.0 mph16.1 kmh 30.01 in1016.3 mb 0.00 in0.0 mm 0.00 in0.0 mm 0.00 in0.0 mm
11:36 AM 33.7°F0.9°C 20.1°F-6.6°C 61% 3.0 mph NNE4.8 kmh NNE 10.0 mph16.1 kmh 30.01 in1016.3 mb 0.00 in0.0 mm 0.00 in0.0 mm 0.00 in0.0 mm
11:38 AM 33.7°F0.9°C 20.5°F-6.4°C 62% 6.0 mph NNW9.7 kmh NNW 10.0 mph16.1 kmh 30.01 in1016.3 mb 0.00 in0.0 mm 0.00 in0.0 mm 0.00 in0.0 mm
11:40 AM 33.8°F1.0°C 19.8°F-6.8°C 60% 4.0 mph NNE6.4 kmh NNE 10.0 mph16.1 kmh 30.01 in1016.3 mb 0.00 in0.0 mm 0.00 in0.0 mm 0.00 in0.0 mm
11:42 AM 33.9°F1.1°C 20.3°F-6.5°C 61% 2.0 mph NE3.2 kmh NE 10.0 mph16.1 kmh 30.01 in1016.3 mb 0.00 in0.0 mm 0.00 in0.0 mm 0.00 in0.0 mm
11:44 AM 34.1°F1.2°C 20.5°F-6.4°C 61% 6.0 mph NNW9.7 kmh NNW 10.0 mph16.1 kmh 30.00 in1015.9 mb 0.00 in0.0 mm 0.00 in0.0 mm 0.00 in0.0 mm
11:46 AM 34.2°F1.2°C 20.6°F-6.3°C 61% 4.0 mph NE6.4 kmh NE 10.0 mph16.1 kmh 30.01 in1016.3 mb 0.00 in0.0 mm 0.00 in0.0 mm 0.00 in0.0 mm
11:48 AM 34.5°F1.4°C 20.9°F-6.2°C 61% 5.0 mph NE8.0 kmh NE 10.0 mph16.1 kmh 30.00 in1015.9 mb 0.00 in0.0 mm 0.00 in0.0 mm 0.00 in0.0 mm
11:50 AM 34.7°F1.5°C 20.2°F-6.6°C 59% 2.0 mph NE3.2 kmh NE 10.0 mph16.1 kmh 30.00 in1015.9 mb 0.00 in0.0 mm 0.00 in0.0 mm 0.00 in0.0 mm
11:52 AM 35.0°F1.7°C 21.3°F-5.9°C 61% 3.0 mph NE4.8 kmh NE 10.0 mph16.1 kmh 30.00 in1015.9 mb 0.00 in0.0 mm 0.00 in0.0 mm 0.00 in0.0 mm
11:54 AM 35.3°F1.8°C 20.8°F-6.2°C 59% 5.0 mph NE8.0 kmh NE 10.0 mph16.1 kmh 30.01 in1016.3 mb 0.00 in0.0 mm 0.00 in0.0 mm 0.00 in0.0 mm
11:56 AM 35.5°F1.9°C 21.0°F-6.1°C 59% 2.0 mph NW3.2 kmh NW 8.0 mph12.9 kmh 30.01 in1016.3 mb 0.00 in0.0 mm 0.00 in0.0 mm 0.00 in0.0 mm
11:58 AM 35.7°F2.1°C 21.1°F-6.1°C 59% 4.0 mph N6.4 kmh N 8.0 mph12.9 kmh 30.00 in1015.9 mb 0.00 in0.0 mm 0.00 in0.0 mm 0.00 in0.0 mm
12:00 PM 36.0°F2.2°C 20.5°F-6.4°C 57% 3.0 mph N4.8 kmh N 9.0 mph14.5 kmh 30.01 in1016.3 mb 0.00 in0.0 mm 0.00 in0.0 mm 0.00 in0.0 mm
12:02 PM 36.3°F2.4°C 21.3°F-5.9°C 58% 5.0 mph NW8.0 kmh NW 9.0 mph14.5 kmh 30.01 in1016.3 mb 0.00 in0.0 mm 0.00 in0.0 mm 0.00 in0.0 mm
12:04 PM 36.4°F2.4°C 20.9°F-6.2°C 57% 4.0 mph NW6.4 kmh NW 10.0 mph16.1 kmh 30.00 in1015.9 mb 0.00 in0.0 mm 0.00 in0.0 mm 0.00 in0.0 mm
12:06 PM 36.5°F2.5°C 21.0°F-6.1°C 57% 8.0 mph NNE12.9 kmh NNE 10.0 mph16.1 kmh 30.00 in1015.9 mb 0.00 in0.0 mm 0.00 in0.0 mm 0.00 in0.0 mm
12:08 PM 36.5°F2.5°C 20.6°F-6.3°C 56% 5.0 mph N8.0 kmh N 13.0 mph20.9 kmh 30.00 in1015.9 mb 0.00 in0.0 mm 0.00 in0.0 mm 0.00 in0.0 mm
12:10 PM 36.4°F2.4°C 20.5°F-6.4°C 56% 4.0 mph NE6.4 kmh NE 13.0 mph20.9 kmh 30.00 in1015.9 mb 0.00 in0.0 mm 0.00 in0.0 mm 0.00 in0.0 mm
12:12 PM 36.3°F2.4°C 19.9°F-6.7°C 55% 5.0 mph NE8.0 kmh NE 13.0 mph20.9 kmh 30.00 in1015.9 mb 0.00 in0.0 mm 0.00 in0.0 mm 0.00 in0.0 mm
12:14 PM 36.1°F2.3°C 19.7°F-6.8°C 55% 3.0 mph NNW4.8 kmh NNW 13.0 mph20.9 kmh 30.00 in1015.9 mb 0.00 in0.0 mm 0.00 in0.0 mm 0.00 in0.0 mm
12:16 PM 36.1°F2.3°C 20.2°F-6.6°C 56% 5.0 mph N8.0 kmh N 13.0 mph20.9 kmh 30.00 in1015.9 mb 0.00 in0.0 mm 0.00 in0.0 mm 0.00 in0.0 mm
12:18 PM 36.0°F2.2°C 20.1°F-6.6°C 56% 3.0 mph N4.8 kmh N 13.0 mph20.9 kmh 30.00 in1015.9 mb 0.00 in0.0 mm 0.00 in0.0 mm 0.00 in0.0 mm
12:20 PM 36.1°F2.3°C 20.2°F-6.6°C 56% 9.0 mph ENE14.5 kmh ENE 13.0 mph20.9 kmh 30.00 in1015.9 mb 0.00 in0.0 mm 0.00 in0.0 mm 0.00 in0.0 mm
12:22 PM 36.1°F2.3°C 20.2°F-6.6°C 56% 2.0 mph NE3.2 kmh NE 13.0 mph20.9 kmh 30.00 in1015.9 mb 0.00 in0.0 mm 0.00 in0.0 mm 0.00 in0.0 mm
12:24 PM 36.2°F2.3°C 20.7°F-6.3°C 57% 3.0 mph NE4.8 kmh NE 13.0 mph20.9 kmh 30.00 in1015.9 mb 0.00 in0.0 mm 0.00 in0.0 mm 0.00 in0.0 mm
12:26 PM 36.4°F2.4°C 20.5°F-6.4°C 56% 4.0 mph NNE6.4 kmh NNE 13.0 mph20.9 kmh 30.00 in1015.9 mb 0.00 in0.0 mm 0.00 in0.0 mm 0.00 in0.0 mm
12:28 PM 36.5°F2.5°C 20.1°F-6.6°C 55% 3.0 mph NE4.8 kmh NE 12.0 mph19.3 kmh 30.00 in1015.9 mb 0.00 in0.0 mm 0.00 in0.0 mm 0.00 in0.0 mm
12:30 PM 36.6°F2.6°C 21.1°F-6.1°C 57% 2.0 mph N3.2 kmh N 12.0 mph19.3 kmh 30.00 in1015.9 mb 0.00 in0.0 mm 0.00 in0.0 mm 0.00 in0.0 mm
12:32 PM 36.8°F2.7°C 20.8°F-6.2°C 56% 3.0 mph NNW4.8 kmh NNW 12.0 mph19.3 kmh 30.00 in1015.9 mb 0.00 in0.0 mm 0.00 in0.0 mm 0.00 in0.0 mm
12:34 PM 37.1°F2.8°C 21.6°F-5.8°C 57% 3.0 mph NW4.8 kmh NW 12.0 mph19.3 kmh 30.00 in1015.9 mb 0.00 in0.0 mm 0.00 in0.0 mm 0.00 in0.0 mm
12:36 PM 37.4°F3.0°C 20.9°F-6.2°C 55% 3.0 mph NNE4.8 kmh NNE 12.0 mph19.3 kmh 30.00 in1015.9 mb 0.00 in0.0 mm 0.00 in0.0 mm 0.00 in0.0 mm
12:38 PM 37.5°F3.1°C 20.1°F-6.6°C 53% 8.0 mph NE12.9 kmh NE 10.0 mph16.1 kmh 30.00 in1015.9 mb 0.00 in0.0 mm 0.00 in0.0 mm 0.00 in0.0 mm
12:40 PM 37.6°F3.1°C 20.2°F-6.6°C 53% 4.0 mph N6.4 kmh N 10.0 mph16.1 kmh 30.00 in1015.9 mb 0.00 in0.0 mm 0.00 in0.0 mm 0.00 in0.0 mm
12:42 PM 37.6°F3.1°C 19.2°F-7.1°C 51% 4.0 mph NE6.4 kmh NE 10.0 mph16.1 kmh 30.00 in1015.9 mb 0.00 in0.0 mm 0.00 in0.0 mm 0.00 in0.0 mm
12:44 PM 37.5°F3.1°C 19.1°F-7.2°C 51% 5.0 mph NNE8.0 kmh NNE 11.0 mph17.7 kmh 30.00 in1015.9 mb 0.00 in0.0 mm 0.00 in0.0 mm 0.00 in0.0 mm
12:46 PM 37.3°F2.9°C 19.9°F-6.7°C 53% 4.0 mph NNE6.4 kmh NNE 11.0 mph17.7 kmh 30.00 in1015.9 mb 0.00 in0.0 mm 0.00 in0.0 mm 0.00 in0.0 mm
12:48 PM 37.3°F2.9°C 19.9°F-6.7°C 53% 6.0 mph NE9.7 kmh NE 11.0 mph17.7 kmh 29.99 in1015.6 mb 0.00 in0.0 mm 0.00 in0.0 mm 0.00 in0.0 mm
12:50 PM 37.2°F2.9°C 19.8°F-6.8°C 53% 7.0 mph E11.3 kmh E 11.0 mph17.7 kmh 29.99 in1015.6 mb 0.00 in0.0 mm 0.00 in0.0 mm 0.00 in0.0 mm
12:52 PM 37.2°F2.9°C 19.8°F-6.8°C 53% 6.0 mph NW9.7 kmh NW 11.0 mph17.7 kmh 29.99 in1015.6 mb 0.00 in0.0 mm 0.00 in0.0 mm 0.00 in0.0 mm
12:54 PM 37.3°F2.9°C 20.4°F-6.4°C 54% 3.0 mph NNE4.8 kmh NNE 11.0 mph17.7 kmh 29.99 in1015.6 mb 0.00 in0.0 mm 0.00 in0.0 mm 0.00 in0.0 mm
12:56 PM 37.4°F3.0°C 20.5°F-6.4°C 54% 2.0 mph NNW3.2 kmh NNW 11.0 mph17.7 kmh 29.99 in1015.6 mb 0.00 in0.0 mm 0.00 in0.0 mm 0.00 in0.0 mm
12:58 PM 37.5°F3.1°C 20.1°F-6.6°C 53% 4.0 mph NNW6.4 kmh NNW 11.0 mph17.7 kmh 29.98 in1015.2 mb 0.00 in0.0 mm 0.00 in0.0 mm 0.00 in0.0 mm
01:00 PM 37.8°F3.2°C 20.4°F-6.4°C 53% 5.0 mph NNE8.0 kmh NNE 11.0 mph17.7 kmh 29.99 in1015.6 mb 0.00 in0.0 mm 0.00 in0.0 mm 0.00 in0.0 mm
01:02 PM 38.1°F3.4°C 20.2°F-6.6°C 52% 3.0 mph NNW4.8 kmh NNW 11.0 mph17.7 kmh 29.99 in1015.6 mb 0.00 in0.0 mm 0.00 in0.0 mm 0.00 in0.0 mm
01:04 PM 38.3°F3.5°C 20.4°F-6.4°C 52% 4.0 mph NW6.4 kmh NW 8.0 mph12.9 kmh 29.99 in1015.6 mb 0.00 in0.0 mm 0.00 in0.0 mm 0.00 in0.0 mm
01:06 PM 38.4°F3.6°C 18.9°F-7.3°C 49% 4.0 mph 6.4 kmh 9.0 mph14.5 kmh 29.99 in1015.6 mb 0.00 in0.0 mm 0.00 in0.0 mm 0.00 in0.0 mm
01:08 PM 38.4°F3.6°C 19.4°F-7.0°C 50% 3.0 mph NW4.8 kmh NW 9.0 mph14.5 kmh 29.99 in1015.6 mb 0.00 in0.0 mm 0.00 in0.0 mm 0.00 in0.0 mm
01:10 PM 38.4°F3.6°C 19.4°F-7.0°C 50% 4.0 mph NW6.4 kmh NW 9.0 mph14.5 kmh 29.99 in1015.6 mb 0.00 in0.0 mm 0.00 in0.0 mm 0.00 in0.0 mm
01:12 PM 38.5°F3.6°C 20.5°F-6.4°C 52% 3.0 mph WNW4.8 kmh WNW 9.0 mph14.5 kmh 29.99 in1015.6 mb 0.00 in0.0 mm 0.00 in0.0 mm 0.00 in0.0 mm
01:14 PM 38.5°F3.6°C 20.5°F-6.4°C 52% 3.0 mph NW4.8 kmh NW 9.0 mph14.5 kmh 29.99 in1015.6 mb 0.00 in0.0 mm 0.00 in0.0 mm 0.00 in0.0 mm
01:16 PM 38.4°F3.6°C 19.9°F-6.7°C 51% 3.0 mph NNW4.8 kmh NNW 9.0 mph14.5 kmh 29.99 in1015.6 mb 0.00 in0.0 mm 0.00 in0.0 mm 0.00 in0.0 mm
01:18 PM 38.4°F3.6°C 20.4°F-6.4°C 52% 4.0 mph N6.4 kmh N 9.0 mph14.5 kmh 29.99 in1015.6 mb 0.00 in0.0 mm 0.00 in0.0 mm 0.00 in0.0 mm
01:20 PM 38.4°F3.6°C 19.9°F-6.7°C 51% 2.0 mph NNW3.2 kmh NNW 9.0 mph14.5 kmh 29.99 in1015.6 mb 0.00 in0.0 mm 0.00 in0.0 mm 0.00 in0.0 mm
01:22 PM 38.4°F3.6°C 20.4°F-6.4°C 52% 4.0 mph NNW6.4 kmh NNW 10.0 mph16.1 kmh 29.99 in1015.6 mb 0.00 in0.0 mm 0.00 in0.0 mm 0.00 in0.0 mm
01:24 PM 38.5°F3.6°C 19.5°F-6.9°C 50% 9.0 mph NW14.5 kmh NW 10.0 mph16.1 kmh 29.99 in1015.6 mb 0.00 in0.0 mm 0.00 in0.0 mm 0.00 in0.0 mm
01:26 PM 38.3°F3.5°C 18.3°F-7.6°C 48% 5.0 mph NNW8.0 kmh NNW 10.0 mph16.1 kmh 29.99 in1015.6 mb 0.00 in0.0 mm 0.00 in0.0 mm 0.00 in0.0 mm
01:28 PM 38.2°F3.4°C 18.8°F-7.3°C 49% 8.0 mph NNW12.9 kmh NNW 10.0 mph16.1 kmh 29.99 in1015.6 mb 0.00 in0.0 mm 0.00 in0.0 mm 0.00 in0.0 mm
01:30 PM 38.0°F3.3°C 18.6°F-7.4°C 49% 5.0 mph NW8.0 kmh NW 10.0 mph16.1 kmh 29.99 in1015.6 mb 0.00 in0.0 mm 0.00 in0.0 mm 0.00 in0.0 mm
01:32 PM 37.9°F3.3°C 19.5°F-6.9°C 51% 4.0 mph NNW6.4 kmh NNW 10.0 mph16.1 kmh 29.99 in1015.6 mb 0.00 in0.0 mm 0.00 in0.0 mm 0.00 in0.0 mm
01:34 PM 37.9°F3.3°C 19.5°F-6.9°C 51% 4.0 mph NNW6.4 kmh NNW 10.0 mph16.1 kmh 29.99 in1015.6 mb 0.00 in0.0 mm 0.00 in0.0 mm 0.00 in0.0 mm
01:36 PM 37.9°F3.3°C 19.0°F-7.2°C 50% 8.0 mph NE12.9 kmh NE 10.0 mph16.1 kmh 29.98 in1015.2 mb 0.00 in0.0 mm 0.00 in0.0 mm 0.00 in0.0 mm
01:38 PM 37.9°F3.3°C 19.0°F-7.2°C 50% 2.0 mph NNE3.2 kmh NNE 10.0 mph16.1 kmh 29.98 in1015.2 mb 0.00 in0.0 mm 0.00 in0.0 mm 0.00 in0.0 mm
01:40 PM 37.9°F3.3°C 20.0°F-6.7°C 52% 3.0 mph N4.8 kmh N 10.0 mph16.1 kmh 29.98 in1015.2 mb 0.00 in0.0 mm 0.00 in0.0 mm 0.00 in0.0 mm
01:42 PM 38.0°F3.3°C 19.1°F-7.2°C 50% 4.0 mph NW6.4 kmh NW 9.0 mph14.5 kmh 29.98 in1015.2 mb 0.00 in0.0 mm 0.00 in0.0 mm 0.00 in0.0 mm
01:44 PM 38.2°F3.4°C 19.8°F-6.8°C 51% 4.0 mph NNW6.4 kmh NNW 9.0 mph14.5 kmh 29.98 in1015.2 mb 0.00 in0.0 mm 0.00 in0.0 mm 0.00 in0.0 mm
01:46 PM 38.3°F3.5°C 19.4°F-7.0°C 50% 4.0 mph NNW6.4 kmh NNW 9.0 mph14.5 kmh 29.98 in1015.2 mb 0.00 in0.0 mm 0.00 in0.0 mm 0.00 in0.0 mm
01:48 PM 38.1°F3.4°C 19.7°F-6.8°C 51% 7.0 mph W11.3 kmh W 9.0 mph14.5 kmh 29.98 in1015.2 mb 0.00 in0.0 mm 0.00 in0.0 mm 0.00 in0.0 mm
01:50 PM 38.0°F3.3°C 19.6°F-6.9°C 51% 3.0 mph NW4.8 kmh NW 9.0 mph14.5 kmh 29.98 in1015.2 mb 0.00 in0.0 mm 0.00 in0.0 mm 0.00 in0.0 mm
01:52 PM 38.1°F3.4°C 20.2°F-6.6°C 52% 2.0 mph N3.2 kmh N 9.0 mph14.5 kmh 29.98 in1015.2 mb 0.00 in0.0 mm 0.00 in0.0 mm 0.00 in0.0 mm
01:54 PM 38.2°F3.4°C 20.3°F-6.5°C 52% 3.0 mph NW4.8 kmh NW 9.0 mph14.5 kmh 29.98 in1015.2 mb 0.00 in0.0 mm 0.00 in0.0 mm 0.00 in0.0 mm
01:56 PM 38.3°F3.5°C 20.4°F-6.4°C 52% 4.0 mph NW6.4 kmh NW 9.0 mph14.5 kmh 29.98 in1015.2 mb 0.00 in0.0 mm 0.00 in0.0 mm 0.00 in0.0 mm
01:58 PM 38.4°F3.6°C 20.4°F-6.4°C 52% 2.0 mph NW3.2 kmh NW 9.0 mph14.5 kmh 29.98 in1015.2 mb 0.00 in0.0 mm 0.00 in0.0 mm 0.00 in0.0 mm
02:00 PM 38.5°F3.6°C 20.5°F-6.4°C 52% 2.0 mph NW3.2 kmh NW 9.0 mph14.5 kmh 29.98 in1015.2 mb 0.00 in0.0 mm 0.00 in0.0 mm 0.00 in0.0 mm
02:02 PM 38.6°F3.7°C 19.6°F-6.9°C 50% 3.0 mph NW4.8 kmh NW 9.0 mph14.5 kmh 29.98 in1015.2 mb 0.00 in0.0 mm 0.00 in0.0 mm 0.00 in0.0 mm
02:04 PM 38.7°F3.7°C 19.7°F-6.8°C 50% 9.0 mph NNE14.5 kmh NNE 9.0 mph14.5 kmh 29.98 in1015.2 mb 0.00 in0.0 mm 0.00 in0.0 mm 0.00 in0.0 mm
02:06 PM 38.9°F3.8°C 20.9°F-6.2°C 52% 1.0 mph E1.6 kmh E 9.0 mph14.5 kmh 29.98 in1015.2 mb 0.00 in0.0 mm 0.00 in0.0 mm 0.00 in0.0 mm
02:08 PM 39.1°F3.9°C 20.6°F-6.3°C 51% 8.0 mph W12.9 kmh W 9.0 mph14.5 kmh 29.98 in1015.2 mb 0.00 in0.0 mm 0.00 in0.0 mm 0.00 in0.0 mm
02:10 PM 39.2°F4.0°C 20.7°F-6.3°C 51% 3.0 mph NW4.8 kmh NW 9.0 mph14.5 kmh 29.98 in1015.2 mb 0.00 in0.0 mm 0.00 in0.0 mm 0.00 in0.0 mm
02:12 PM 39.5°F4.2°C 21.5°F-5.8°C 52% 4.0 mph N6.4 kmh N 9.0 mph14.5 kmh 29.97 in1014.9 mb 0.00 in0.0 mm 0.00 in0.0 mm 0.00 in0.0 mm
02:14 PM 39.7°F4.3°C 20.6°F-6.3°C 50% 5.0 mph N8.0 kmh N 9.0 mph14.5 kmh 29.97 in1014.9 mb 0.00 in0.0 mm 0.00 in0.0 mm 0.00 in0.0 mm
02:16 PM 39.9°F4.4°C 19.8°F-6.8°C 48% 2.0 mph NE3.2 kmh NE 9.0 mph14.5 kmh 29.97 in1014.9 mb 0.00 in0.0 mm 0.00 in0.0 mm 0.00 in0.0 mm
02:18 PM 39.8°F4.3°C 19.7°F-6.8°C 48% 5.0 mph N8.0 kmh N 10.0 mph16.1 kmh 29.97 in1014.9 mb 0.00 in0.0 mm 0.00 in0.0 mm 0.00 in0.0 mm
02:20 PM 39.7°F4.3°C 19.6°F-6.9°C 48% 9.0 mph N14.5 kmh N 11.0 mph17.7 kmh 29.97 in1014.9 mb 0.00 in0.0 mm 0.00 in0.0 mm 0.00 in0.0 mm
02:22 PM 39.7°F4.3°C 19.6°F-6.9°C 48% 10.0 mph NE16.1 kmh NE 13.0 mph20.9 kmh 29.97 in1014.9 mb 0.00 in0.0 mm 0.00 in0.0 mm 0.00 in0.0 mm
02:24 PM 39.5°F4.2°C 18.9°F-7.3°C 47% 5.0 mph N8.0 kmh N 13.0 mph20.9 kmh 29.97 in1014.9 mb 0.00 in0.0 mm 0.00 in0.0 mm 0.00 in0.0 mm
02:26 PM 39.2°F4.0°C 18.6°F-7.4°C 47% 5.0 mph N8.0 kmh N 13.0 mph20.9 kmh 29.97 in1014.9 mb 0.00 in0.0 mm 0.00 in0.0 mm 0.00 in0.0 mm
02:28 PM 39.3°F4.1°C 19.2°F-7.1°C 48% 3.0 mph E4.8 kmh E 13.0 mph20.9 kmh 29.97 in1014.9 mb 0.00 in0.0 mm 0.00 in0.0 mm 0.00 in0.0 mm
02:30 PM 39.3°F4.1°C 18.7°F-7.4°C 47% 1.0 mph NNE1.6 kmh NNE 13.0 mph20.9 kmh 29.97 in1014.9 mb 0.00 in0.0 mm 0.00 in0.0 mm 0.00 in0.0 mm
02:32 PM 39.6°F4.2°C 20.5°F-6.4°C 50% 3.0 mph NW4.8 kmh NW 13.0 mph20.9 kmh 29.97 in1014.9 mb 0.00 in0.0 mm 0.00 in0.0 mm 0.00 in0.0 mm
02:34 PM 40.1°F4.5°C 21.0°F-6.1°C 50% 2.0 mph NE3.2 kmh NE 13.0 mph20.9 kmh 29.97 in1014.9 mb 0.00 in0.0 mm 0.00 in0.0 mm 0.00 in0.0 mm
02:36 PM 40.2°F4.6°C 19.5°F-6.9°C 47% 2.0 mph N3.2 kmh N 13.0 mph20.9 kmh 29.97 in1014.9 mb 0.00 in0.0 mm 0.00 in0.0 mm 0.00 in0.0 mm
02:38 PM 40.2°F4.6°C 19.5°F-6.9°C 47% 4.0 mph NNW6.4 kmh NNW 13.0 mph20.9 kmh 29.97 in1014.9 mb 0.00 in0.0 mm 0.00 in0.0 mm 0.00 in0.0 mm
02:40 PM 40.2°F4.6°C 20.6°F-6.3°C 49% 4.0 mph NE6.4 kmh NE 13.0 mph20.9 kmh 29.97 in1014.9 mb 0.00 in0.0 mm 0.00 in0.0 mm 0.00 in0.0 mm
02:42 PM 40.1°F4.5°C 19.4°F-7.0°C 47% 3.0 mph NNE4.8 kmh NNE 10.0 mph16.1 kmh 29.96 in1014.6 mb 0.00 in0.0 mm 0.00 in0.0 mm 0.00 in0.0 mm
02:44 PM 39.8°F4.3°C 19.7°F-6.8°C 48% 3.0 mph N4.8 kmh N 10.0 mph16.1 kmh 29.96 in1014.6 mb 0.00 in0.0 mm 0.00 in0.0 mm 0.00 in0.0 mm
02:46 PM 39.7°F4.3°C 20.1°F-6.6°C 49% 2.0 mph NNW3.2 kmh NNW 10.0 mph16.1 kmh 29.96 in1014.6 mb 0.00 in0.0 mm 0.00 in0.0 mm 0.00 in0.0 mm
02:48 PM 39.8°F4.3°C 20.2°F-6.6°C 49% 4.0 mph 6.4 kmh 10.0 mph16.1 kmh 29.96 in1014.6 mb 0.00 in0.0 mm 0.00 in0.0 mm 0.00 in0.0 mm
02:50 PM 40.0°F4.4°C 19.9°F-6.7°C 48% 3.0 mph NE4.8 kmh NE 10.0 mph16.1 kmh 29.96 in1014.6 mb 0.00 in0.0 mm 0.00 in0.0 mm 0.00 in0.0 mm
02:52 PM 40.3°F4.6°C 21.2°F-6.0°C 50% 5.0 mph NNW8.0 kmh NNW 9.0 mph14.5 kmh 29.96 in1014.6 mb 0.00 in0.0 mm 0.00 in0.0 mm 0.00 in0.0 mm
02:54 PM 40.6°F4.8°C 21.5°F-5.8°C 50% 6.0 mph NW9.7 kmh NW 9.0 mph14.5 kmh 29.96 in1014.6 mb 0.00 in0.0 mm 0.00 in0.0 mm 0.00 in0.0 mm
02:56 PM 40.7°F4.8°C 20.5°F-6.4°C 48% 3.0 mph NNW4.8 kmh NNW 9.0 mph14.5 kmh 29.96 in1014.6 mb 0.00 in0.0 mm 0.00 in0.0 mm 0.00 in0.0 mm
02:58 PM 40.5°F4.7°C 20.3°F-6.5°C 48% 5.0 mph NW8.0 kmh NW 9.0 mph14.5 kmh 29.96 in1014.6 mb 0.00 in0.0 mm 0.00 in0.0 mm 0.00 in0.0 mm
03:00 PM 40.5°F4.7°C 20.3°F-6.5°C 48% 8.0 mph N12.9 kmh N 9.0 mph14.5 kmh 29.96 in1014.6 mb 0.00 in0.0 mm 0.00 in0.0 mm 0.00 in0.0 mm
03:02 PM 40.4°F4.7°C 20.8°F-6.2°C 49% 3.0 mph N4.8 kmh N 9.0 mph14.5 kmh 29.96 in1014.6 mb 0.00 in0.0 mm 0.00 in0.0 mm 0.00 in0.0 mm
03:04 PM 40.3°F4.6°C 20.1°F-6.6°C 48% 10.0 mph NNW16.1 kmh NNW 10.0 mph16.1 kmh 29.96 in1014.6 mb 0.00 in0.0 mm 0.00 in0.0 mm 0.00 in0.0 mm
03:06 PM 40.0°F4.4°C 20.9°F-6.2°C 50% 7.0 mph NW11.3 kmh NW 10.0 mph16.1 kmh 29.96 in1014.6 mb 0.00 in0.0 mm 0.00 in0.0 mm 0.00 in0.0 mm
03:08 PM 40.0°F4.4°C 20.4°F-6.4°C 49% 3.0 mph NNW4.8 kmh NNW 10.0 mph16.1 kmh 29.96 in1014.6 mb 0.00 in0.0 mm 0.00 in0.0 mm 0.00 in0.0 mm
03:10 PM 39.9°F4.4°C 20.3°F-6.5°C 49% 7.0 mph W11.3 kmh W 10.0 mph16.1 kmh 29.96 in1014.6 mb 0.00 in0.0 mm 0.00 in0.0 mm 0.00 in0.0 mm
03:12 PM 39.8°F4.3°C 20.7°F-6.3°C 50% 8.0 mph W12.9 kmh W 10.0 mph16.1 kmh 29.96 in1014.6 mb 0.00 in0.0 mm 0.00 in0.0 mm 0.00 in0.0 mm
03:14 PM 39.7°F4.3°C 19.6°F-6.9°C 48% 2.0 mph NNW3.2 kmh NNW 11.0 mph17.7 kmh 29.96 in1014.6 mb 0.00 in0.0 mm 0.00 in0.0 mm 0.00 in0.0 mm
03:16 PM 39.5°F4.2°C 19.4°F-7.0°C 48% 4.0 mph WNW6.4 kmh WNW 11.0 mph17.7 kmh 29.95 in1014.2 mb 0.00 in0.0 mm 0.00 in0.0 mm 0.00 in0.0 mm
03:18 PM 39.4°F4.1°C 19.8°F-6.8°C 49% 9.0 mph NW14.5 kmh NW 11.0 mph17.7 kmh 29.96 in1014.6 mb 0.00 in0.0 mm 0.00 in0.0 mm 0.00 in0.0 mm
03:20 PM 39.2°F4.0°C 19.1°F-7.2°C 48% 3.0 mph NW4.8 kmh NW 11.0 mph17.7 kmh 29.96 in1014.6 mb 0.00 in0.0 mm 0.00 in0.0 mm 0.00 in0.0 mm
03:22 PM 38.9°F3.8°C 18.9°F-7.3°C 48% 10.0 mph NW16.1 kmh NW 11.0 mph17.7 kmh 29.96 in1014.6 mb 0.00 in0.0 mm 0.00 in0.0 mm 0.00 in0.0 mm
03:24 PM 38.8°F3.8°C 18.8°F-7.3°C 48% 4.0 mph NNW6.4 kmh NNW 11.0 mph17.7 kmh 29.96 in1014.6 mb 0.00 in0.0 mm 0.00 in0.0 mm 0.00 in0.0 mm
03:26 PM 38.6°F3.7°C 19.1°F-7.2°C 49% 6.0 mph 9.7 kmh 11.0 mph17.7 kmh 29.96 in1014.6 mb 0.00 in0.0 mm 0.00 in0.0 mm 0.00 in0.0 mm
03:28 PM 38.5°F3.6°C 19.5°F-6.9°C 50% 4.0 mph NW6.4 kmh NW 11.0 mph17.7 kmh 29.96 in1014.6 mb 0.00 in0.0 mm 0.00 in0.0 mm 0.00 in0.0 mm
03:30 PM 38.4°F3.6°C 19.9°F-6.7°C 51% 3.0 mph WNW4.8 kmh WNW 11.0 mph17.7 kmh 29.96 in1014.6 mb 0.00 in0.0 mm 0.00 in0.0 mm 0.00 in0.0 mm
03:32 PM 38.5°F3.6°C 19.5°F-6.9°C 50% 3.0 mph NNE4.8 kmh NNE 11.0 mph17.7 kmh 29.96 in1014.6 mb 0.00 in0.0 mm 0.00 in0.0 mm 0.00 in0.0 mm
03:34 PM 38.5°F3.6°C 20.0°F-6.7°C 51% 3.0 mph NW4.8 kmh NW 9.0 mph14.5 kmh 29.96 in1014.6 mb 0.00 in0.0 mm 0.00 in0.0 mm 0.00 in0.0 mm
03:36 PM 38.6°F3.7°C 20.1°F-6.6°C 51% 4.0 mph NNW6.4 kmh NNW 9.0 mph14.5 kmh 29.96 in1014.6 mb 0.00 in0.0 mm 0.00 in0.0 mm 0.00 in0.0 mm
03:38 PM 38.6°F3.7°C 20.6°F-6.3°C 52% 5.0 mph WNW8.0 kmh WNW 9.0 mph14.5 kmh 29.96 in1014.6 mb 0.00 in0.0 mm 0.00 in0.0 mm 0.00 in0.0 mm
03:40 PM 38.6°F3.7°C 20.1°F-6.6°C 51% 7.0 mph WNW11.3 kmh WNW 9.0 mph14.5 kmh 29.96 in1014.6 mb 0.00 in0.0 mm 0.00 in0.0 mm 0.00 in0.0 mm
03:42 PM 38.5°F3.6°C 20.5°F-6.4°C 52% 5.0 mph NNW8.0 kmh NNW 10.0 mph16.1 kmh 29.96 in1014.6 mb 0.00 in0.0 mm 0.00 in0.0 mm 0.00 in0.0 mm
03:44 PM 38.4°F3.6°C 19.9°F-6.7°C 51% 3.0 mph NNW4.8 kmh NNW 10.0 mph16.1 kmh 29.96 in1014.6 mb 0.00 in0.0 mm 0.00 in0.0 mm 0.00 in0.0 mm
03:46 PM 38.3°F3.5°C 19.9°F-6.7°C 51% 1.0 mph N1.6 kmh N 10.0 mph16.1 kmh 29.96 in1014.6 mb 0.00 in0.0 mm 0.00 in0.0 mm 0.00 in0.0 mm
03:48 PM 38.3°F3.5°C 20.8°F-6.2°C 53% 4.0 mph NNW6.4 kmh NNW 10.0 mph16.1 kmh 29.96 in1014.6 mb 0.00 in0.0 mm 0.00 in0.0 mm 0.00 in0.0 mm
03:50 PM 38.4°F3.6°C 20.9°F-6.2°C 53% 8.0 mph NNW12.9 kmh NNW 10.0 mph16.1 kmh 29.96 in1014.6 mb 0.00 in0.0 mm 0.00 in0.0 mm 0.00 in0.0 mm
03:52 PM 38.3°F3.5°C 20.8°F-6.2°C 53% 5.0 mph NW8.0 kmh NW 10.0 mph16.1 kmh 29.96 in1014.6 mb 0.00 in0.0 mm 0.00 in0.0 mm 0.00 in0.0 mm
03:54 PM 38.2°F3.4°C 20.7°F-6.3°C 53% 4.0 mph NNW6.4 kmh NNW 10.0 mph16.1 kmh 29.96 in1014.6 mb 0.00 in0.0 mm 0.00 in0.0 mm 0.00 in0.0 mm
03:56 PM 38.1°F3.4°C 20.7°F-6.3°C 53% 5.0 mph NNE8.0 kmh NNE 10.0 mph16.1 kmh 29.96 in1014.6 mb 0.00 in0.0 mm 0.00 in0.0 mm 0.00 in0.0 mm
03:58 PM 38.0°F3.3°C 20.6°F-6.3°C 53% 3.0 mph NNE4.8 kmh NNE 10.0 mph16.1 kmh 29.96 in1014.6 mb 0.00 in0.0 mm 0.00 in0.0 mm 0.00 in0.0 mm
04:00 PM 38.0°F3.3°C 21.0°F-6.1°C 54% 2.0 mph NW3.2 kmh NW 10.0 mph16.1 kmh 29.96 in1014.6 mb 0.00 in0.0 mm 0.00 in0.0 mm 0.00 in0.0 mm
04:02 PM 38.0°F3.3°C 21.0°F-6.1°C 54% 3.0 mph N4.8 kmh N 9.0 mph14.5 kmh 29.96 in1014.6 mb 0.00 in0.0 mm 0.00 in0.0 mm 0.00 in0.0 mm
04:04 PM 38.1°F3.4°C 21.6°F-5.8°C 55% 5.0 mph NW8.0 kmh NW 9.0 mph14.5 kmh 29.96 in1014.6 mb 0.00 in0.0 mm 0.00 in0.0 mm 0.00 in0.0 mm
04:06 PM 38.3°F3.5°C 21.8°F-5.7°C 55% 3.0 mph NNW4.8 kmh NNW 9.0 mph14.5 kmh 29.96 in1014.6 mb 0.00 in0.0 mm 0.00 in0.0 mm 0.00 in0.0 mm
04:08 PM 38.4°F3.6°C 21.9°F-5.6°C 55% 2.0 mph N3.2 kmh N 9.0 mph14.5 kmh 29.96 in1014.6 mb 0.00 in0.0 mm 0.00 in0.0 mm 0.00 in0.0 mm
04:10 PM 38.6°F3.7°C 22.1°F-5.5°C 55% 4.0 mph N6.4 kmh N 9.0 mph14.5 kmh 29.96 in1014.6 mb 0.00 in0.0 mm 0.00 in0.0 mm 0.00 in0.0 mm
04:12 PM 38.7°F3.7°C 21.7°F-5.7°C 54% 3.0 mph NNW4.8 kmh NNW 7.0 mph11.3 kmh 29.96 in1014.6 mb 0.00 in0.0 mm 0.00 in0.0 mm 0.00 in0.0 mm
04:14 PM 38.9°F3.8°C 22.3°F-5.4°C 55% 7.0 mph NW11.3 kmh NW 9.0 mph14.5 kmh 29.96 in1014.6 mb 0.00 in0.0 mm 0.00 in0.0 mm 0.00 in0.0 mm
04:16 PM 38.9°F3.8°C 21.9°F-5.6°C 54% 4.0 mph WNW6.4 kmh WNW 9.0 mph14.5 kmh 29.96 in1014.6 mb 0.00 in0.0 mm 0.00 in0.0 mm 0.00 in0.0 mm
04:18 PM 38.8°F3.8°C 22.2°F-5.4°C 55% 4.0 mph W6.4 kmh W 9.0 mph14.5 kmh 29.96 in1014.6 mb 0.00 in0.0 mm 0.00 in0.0 mm 0.00 in0.0 mm
04:20 PM 38.7°F3.7°C 22.1°F-5.5°C 55% 5.0 mph NW8.0 kmh NW 9.0 mph14.5 kmh 29.96 in1014.6 mb 0.00 in0.0 mm 0.00 in0.0 mm 0.00 in0.0 mm
04:22 PM 38.6°F3.7°C 22.1°F-5.5°C 55% 3.0 mph W4.8 kmh W 9.0 mph14.5 kmh 29.96 in1014.6 mb 0.00 in0.0 mm 0.00 in0.0 mm 0.00 in0.0 mm
04:24 PM 38.5°F3.6°C 22.0°F-5.6°C 55% 5.0 mph NW8.0 kmh NW 9.0 mph14.5 kmh 29.96 in1014.6 mb 0.00 in0.0 mm 0.00 in0.0 mm 0.00 in0.0 mm
04:26 PM 38.4°F3.6°C 22.8°F-5.1°C 57% 4.0 mph NW6.4 kmh NW 9.0 mph14.5 kmh 29.96 in1014.6 mb 0.00 in0.0 mm 0.00 in0.0 mm 0.00 in0.0 mm
04:28 PM 38.4°F3.6°C 22.3°F-5.4°C 56% 4.0 mph NW6.4 kmh NW 9.0 mph14.5 kmh 29.96 in1014.6 mb 0.00 in0.0 mm 0.00 in0.0 mm 0.00 in0.0 mm
04:30 PM 38.3°F3.5°C 22.2°F-5.4°C 56% 3.0 mph NW4.8 kmh NW 9.0 mph14.5 kmh 29.96 in1014.6 mb 0.00 in0.0 mm 0.00 in0.0 mm 0.00 in0.0 mm
04:32 PM 38.2°F3.4°C 22.6°F-5.2°C 57% 5.0 mph WNW8.0 kmh WNW 9.0 mph14.5 kmh 29.96 in1014.6 mb 0.00 in0.0 mm 0.00 in0.0 mm 0.00 in0.0 mm
04:34 PM 38.1°F3.4°C 22.5°F-5.3°C 57% 6.0 mph NW9.7 kmh NW 9.0 mph14.5 kmh 29.96 in1014.6 mb 0.00 in0.0 mm 0.00 in0.0 mm 0.00 in0.0 mm
04:36 PM 37.9°F3.3°C 22.3°F-5.4°C 57% 4.0 mph NW6.4 kmh NW 9.0 mph14.5 kmh 29.96 in1014.6 mb 0.00 in0.0 mm 0.00 in0.0 mm 0.00 in0.0 mm
04:38 PM 37.8°F3.2°C 22.7°F-5.2°C 58% 5.0 mph NW8.0 kmh NW 9.0 mph14.5 kmh 29.97 in1014.9 mb 0.00 in0.0 mm 0.00 in0.0 mm 0.00 in0.0 mm
04:40 PM 37.6°F3.1°C 22.0°F-5.6°C 57% 4.0 mph NW6.4 kmh NW 9.0 mph14.5 kmh 29.97 in1014.9 mb 0.00 in0.0 mm 0.00 in0.0 mm 0.00 in0.0 mm
04:42 PM 37.4°F3.0°C 22.3°F-5.4°C 58% 5.0 mph NW8.0 kmh NW 9.0 mph14.5 kmh 29.97 in1014.9 mb 0.00 in0.0 mm 0.00 in0.0 mm 0.00 in0.0 mm
04:44 PM 37.2°F2.9°C 22.1°F-5.5°C 58% 5.0 mph NW8.0 kmh NW 10.0 mph16.1 kmh 29.97 in1014.9 mb 0.00 in0.0 mm 0.00 in0.0 mm 0.00 in0.0 mm
04:46 PM 37.1°F2.8°C 22.4°F-5.3°C 59% 7.0 mph NW11.3 kmh NW 10.0 mph16.1 kmh 29.96 in1014.6 mb 0.00 in0.0 mm 0.00 in0.0 mm 0.00 in0.0 mm
04:48 PM 36.9°F2.7°C 22.3°F-5.4°C 59% 4.0 mph NW6.4 kmh NW 10.0 mph16.1 kmh 29.97 in1014.9 mb 0.00 in0.0 mm 0.00 in0.0 mm 0.00 in0.0 mm
04:50 PM 36.8°F2.7°C 22.2°F-5.4°C 59% 4.0 mph NNW6.4 kmh NNW 10.0 mph16.1 kmh 29.97 in1014.9 mb 0.00 in0.0 mm 0.00 in0.0 mm 0.00 in0.0 mm
04:52 PM 36.6°F2.6°C 22.4°F-5.3°C 60% 4.0 mph NW6.4 kmh NW 10.0 mph16.1 kmh 29.97 in1014.9 mb 0.00 in0.0 mm 0.00 in0.0 mm 0.00 in0.0 mm
04:54 PM 36.6°F2.6°C 22.4°F-5.3°C 60% 4.0 mph NW6.4 kmh NW 10.0 mph16.1 kmh 29.97 in1014.9 mb 0.00 in0.0 mm 0.00 in0.0 mm 0.00 in0.0 mm
04:56 PM 36.5°F2.5°C 22.3°F-5.4°C 60% 3.0 mph NW4.8 kmh NW 10.0 mph16.1 kmh 29.97 in1014.9 mb 0.00 in0.0 mm 0.00 in0.0 mm 0.00 in0.0 mm
04:58 PM 36.5°F2.5°C 22.7°F-5.2°C 61% 3.0 mph NW4.8 kmh NW 10.0 mph16.1 kmh 29.97 in1014.9 mb 0.00 in0.0 mm 0.00 in0.0 mm 0.00 in0.0 mm
05:00 PM 36.5°F2.5°C 22.7°F-5.2°C 61% 5.0 mph NW8.0 kmh NW 10.0 mph16.1 kmh 29.97 in1014.9 mb 0.00 in0.0 mm 0.00 in0.0 mm 0.00 in0.0 mm
05:02 PM 36.5°F2.5°C 22.7°F-5.2°C 61% 4.0 mph N6.4 kmh N 10.0 mph16.1 kmh 29.97 in1014.9 mb 0.00 in0.0 mm 0.00 in0.0 mm 0.00 in0.0 mm
05:04 PM 36.4°F2.4°C 22.6°F-5.2°C 61% 3.0 mph NNW4.8 kmh NNW 10.0 mph16.1 kmh 29.97 in1014.9 mb 0.00 in0.0 mm 0.00 in0.0 mm 0.00 in0.0 mm
05:06 PM 36.4°F2.4°C 23.1°F-4.9°C 62% 3.0 mph NNW4.8 kmh NNW 10.0 mph16.1 kmh 29.97 in1014.9 mb 0.00 in0.0 mm 0.00 in0.0 mm 0.00 in0.0 mm
05:08 PM 36.3°F2.4°C 23.0°F-5.0°C 62% 4.0 mph NW6.4 kmh NW 10.0 mph16.1 kmh 29.97 in1014.9 mb 0.00 in0.0 mm 0.00 in0.0 mm 0.00 in0.0 mm
05:10 PM 36.1°F2.3°C 22.8°F-5.1°C 62% 3.0 mph NW4.8 kmh NW 10.0 mph16.1 kmh 29.97 in1014.9 mb 0.00 in0.0 mm 0.00 in0.0 mm 0.00 in0.0 mm
05:12 PM 36.1°F2.3°C 22.8°F-5.1°C 62% 3.0 mph NW4.8 kmh NW 10.0 mph16.1 kmh 29.97 in1014.9 mb 0.00 in0.0 mm 0.00 in0.0 mm 0.00 in0.0 mm
05:14 PM 36.0°F2.2°C 22.7°F-5.2°C 62% 4.0 mph NW6.4 kmh NW 11.0 mph17.7 kmh 29.97 in1014.9 mb 0.00 in0.0 mm 0.00 in0.0 mm 0.00 in0.0 mm
05:16 PM 36.0°F2.2°C 23.1°F-4.9°C 63% 6.0 mph NW9.7 kmh NW 11.0 mph17.7 kmh 29.98 in1015.2 mb 0.00 in0.0 mm 0.00 in0.0 mm 0.00 in0.0 mm
05:18 PM 35.9°F2.2°C 23.0°F-5.0°C 63% 7.0 mph NW11.3 kmh NW 11.0 mph17.7 kmh 29.97 in1014.9 mb 0.00 in0.0 mm 0.00 in0.0 mm 0.00 in0.0 mm
05:20 PM 35.7°F2.1°C 22.8°F-5.1°C 63% 5.0 mph NW8.0 kmh NW 11.0 mph17.7 kmh 29.97 in1014.9 mb 0.00 in0.0 mm 0.00 in0.0 mm 0.00 in0.0 mm
05:22 PM 35.6°F2.0°C 22.7°F-5.2°C 63% 5.0 mph NW8.0 kmh NW 11.0 mph17.7 kmh 29.98 in1015.2 mb 0.00 in0.0 mm 0.00 in0.0 mm 0.00 in0.0 mm
05:24 PM 35.6°F2.0°C 23.1°F-4.9°C 64% 8.0 mph NW12.9 kmh NW 11.0 mph17.7 kmh 29.98 in1015.2 mb 0.00 in0.0 mm 0.00 in0.0 mm 0.00 in0.0 mm
05:26 PM 35.6°F2.0°C 23.5°F-4.7°C 65% 9.0 mph NW14.5 kmh NW 11.0 mph17.7 kmh 29.98 in1015.2 mb 0.00 in0.0 mm 0.00 in0.0 mm 0.00 in0.0 mm
05:28 PM 35.5°F1.9°C 23.4°F-4.8°C 65% 6.0 mph NW9.7 kmh NW 11.0 mph17.7 kmh 29.98 in1015.2 mb 0.00 in0.0 mm 0.00 in0.0 mm 0.00 in0.0 mm
05:30 PM 35.4°F1.9°C 23.3°F-4.8°C 65% 6.0 mph NW9.7 kmh NW 11.0 mph17.7 kmh 29.98 in1015.2 mb 0.00 in0.0 mm 0.00 in0.0 mm 0.00 in0.0 mm
05:32 PM 35.4°F1.9°C 23.7°F-4.6°C 66% 5.0 mph NW8.0 kmh NW 11.0 mph17.7 kmh 29.98 in1015.2 mb 0.00 in0.0 mm 0.00 in0.0 mm 0.00 in0.0 mm
05:34 PM 35.3°F1.8°C 23.6°F-4.7°C 66% 3.0 mph NW4.8 kmh NW 10.0 mph16.1 kmh 29.98 in1015.2 mb 0.00 in0.0 mm 0.00 in0.0 mm 0.00 in0.0 mm
05:36 PM 35.3°F1.8°C 23.6°F-4.7°C 66% 2.0 mph NNW3.2 kmh NNW 10.0 mph16.1 kmh 29.98 in1015.2 mb 0.00 in0.0 mm 0.00 in0.0 mm 0.00 in0.0 mm
05:38 PM 35.3°F1.8°C 23.6°F-4.7°C 66% 5.0 mph NW8.0 kmh NW 10.0 mph16.1 kmh 29.98 in1015.2 mb 0.00 in0.0 mm 0.00 in0.0 mm 0.00 in0.0 mm
05:40 PM 35.3°F1.8°C 23.6°F-4.7°C 66% 5.0 mph NW8.0 kmh NW 10.0 mph16.1 kmh 29.98 in1015.2 mb 0.00 in0.0 mm 0.00 in0.0 mm 0.00 in0.0 mm
05:42 PM 35.2°F1.8°C 23.9°F-4.5°C 67% 2.0 mph 3.2 kmh 10.0 mph16.1 kmh 29.98 in1015.2 mb 0.00 in0.0 mm 0.00 in0.0 mm 0.00 in0.0 mm
05:44 PM 35.2°F1.8°C 24.3°F-4.3°C 68% 3.0 mph NW4.8 kmh NW 10.0 mph16.1 kmh 29.98 in1015.2 mb 0.00 in0.0 mm 0.00 in0.0 mm 0.00 in0.0 mm
05:46 PM 35.2°F1.8°C 24.3°F-4.3°C 68% 4.0 mph NW6.4 kmh NW 10.0 mph16.1 kmh 29.98 in1015.2 mb 0.00 in0.0 mm 0.00 in0.0 mm 0.00 in0.0 mm
05:48 PM 35.2°F1.8°C 24.6°F-4.1°C 69% 6.0 mph N9.7 kmh N 10.0 mph16.1 kmh 29.98 in1015.2 mb 0.00 in0.0 mm 0.00 in0.0 mm 0.00 in0.0 mm
05:50 PM 35.2°F1.8°C 24.6°F-4.1°C 69% 3.0 mph NNW4.8 kmh NNW 10.0 mph16.1 kmh 29.98 in1015.2 mb 0.00 in0.0 mm 0.00 in0.0 mm 0.00 in0.0 mm
05:52 PM 35.1°F1.7°C 24.5°F-4.2°C 69% 4.0 mph NW6.4 kmh NW 10.0 mph16.1 kmh 29.98 in1015.2 mb 0.00 in0.0 mm 0.00 in0.0 mm 0.00 in0.0 mm
05:54 PM 35.1°F1.7°C 24.5°F-4.2°C 69% 4.0 mph NW6.4 kmh NW 10.0 mph16.1 kmh 29.98 in1015.2 mb 0.00 in0.0 mm 0.00 in0.0 mm 0.00 in0.0 mm
05:56 PM 35.1°F1.7°C 24.5°F-4.2°C 69% 9.0 mph NW14.5 kmh NW 10.0 mph16.1 kmh 29.98 in1015.2 mb 0.00 in0.0 mm 0.00 in0.0 mm 0.00 in0.0 mm
05:58 PM 35.0°F1.7°C 24.8°F-4.0°C 70% 2.0 mph NNW3.2 kmh NNW 11.0 mph17.7 kmh 29.98 in1015.2 mb 0.00 in0.0 mm 0.00 in0.0 mm 0.00 in0.0 mm
06:00 PM 34.9°F1.6°C 24.7°F-4.1°C 70% 3.0 mph NNW4.8 kmh NNW 11.0 mph17.7 kmh 29.99 in1015.6 mb 0.00 in0.0 mm 0.00 in0.0 mm 0.00 in0.0 mm
06:02 PM 34.8°F1.6°C 25.0°F-3.9°C 71% 6.0 mph NW9.7 kmh NW 11.0 mph17.7 kmh 29.99 in1015.6 mb 0.00 in0.0 mm 0.00 in0.0 mm 0.00 in0.0 mm
06:04 PM 34.6°F1.4°C 24.8°F-4.0°C 71% 11.0 mph NW17.7 kmh NW 11.0 mph17.7 kmh 29.99 in1015.6 mb 0.00 in0.0 mm 0.00 in0.0 mm 0.00 in0.0 mm
06:06 PM 34.4°F1.3°C 24.9°F-3.9°C 72% 3.0 mph WNW4.8 kmh WNW 11.0 mph17.7 kmh 29.99 in1015.6 mb 0.00 in0.0 mm 0.00 in0.0 mm 0.00 in0.0 mm
06:08 PM 34.4°F1.3°C 24.9°F-3.9°C 72% 4.0 mph NW6.4 kmh NW 11.0 mph17.7 kmh 29.99 in1015.6 mb 0.00 in0.0 mm 0.00 in0.0 mm 0.00 in0.0 mm
06:10 PM 34.3°F1.3°C 25.2°F-3.8°C 73% 9.0 mph NW14.5 kmh NW 11.0 mph17.7 kmh 29.99 in1015.6 mb 0.00 in0.0 mm 0.00 in0.0 mm 0.00 in0.0 mm
06:12 PM 34.3°F1.3°C 25.2°F-3.8°C 73% 2.0 mph N3.2 kmh N 11.0 mph17.7 kmh 29.99 in1015.6 mb 0.00 in0.0 mm 0.00 in0.0 mm 0.00 in0.0 mm
06:14 PM 34.2°F1.2°C 25.1°F-3.8°C 73% 3.0 mph NW4.8 kmh NW 11.0 mph17.7 kmh 29.99 in1015.6 mb 0.00 in0.0 mm 0.00 in0.0 mm 0.00 in0.0 mm
06:16 PM 34.2°F1.2°C 25.5°F-3.6°C 74% 4.0 mph W6.4 kmh W 11.0 mph17.7 kmh 29.99 in1015.6 mb 0.00 in0.0 mm 0.00 in0.0 mm 0.00 in0.0 mm
06:18 PM 34.1°F1.2°C 25.4°F-3.7°C 74% 5.0 mph WNW8.0 kmh WNW 9.0 mph14.5 kmh 29.99 in1015.6 mb 0.00 in0.0 mm 0.00 in0.0 mm 0.00 in0.0 mm
06:20 PM 34.1°F1.2°C 25.4°F-3.7°C 74% 2.0 mph NNW3.2 kmh NNW 9.0 mph14.5 kmh 29.99 in1015.6 mb 0.00 in0.0 mm 0.00 in0.0 mm 0.00 in0.0 mm
06:22 PM 34.0°F1.1°C 25.3°F-3.7°C 74% 4.0 mph WNW6.4 kmh WNW 9.0 mph14.5 kmh 29.99 in1015.6 mb 0.00 in0.0 mm 0.00 in0.0 mm 0.00 in0.0 mm
06:24 PM 34.0°F1.1°C 25.6°F-3.6°C 75% 4.0 mph NW6.4 kmh NW 9.0 mph14.5 kmh 29.99 in1015.6 mb 0.00 in0.0 mm 0.00 in0.0 mm 0.00 in0.0 mm
06:26 PM 33.9°F1.1°C 25.5°F-3.6°C 75% 6.0 mph NW9.7 kmh NW 9.0 mph14.5 kmh 29.99 in1015.6 mb 0.00 in0.0 mm 0.00 in0.0 mm 0.00 in0.0 mm
06:28 PM 33.9°F1.1°C 25.5°F-3.6°C 75% 4.0 mph NW6.4 kmh NW 8.0 mph12.9 kmh 29.99 in1015.6 mb 0.00 in0.0 mm 0.00 in0.0 mm 0.00 in0.0 mm
06:30 PM 33.8°F1.0°C 25.4°F-3.7°C 75% 4.0 mph NW6.4 kmh NW 10.0 mph16.1 kmh 29.99 in1015.6 mb 0.00 in0.0 mm 0.00 in0.0 mm 0.00 in0.0 mm
06:32 PM 33.8°F1.0°C 25.7°F-3.5°C 76% 4.0 mph NW6.4 kmh NW 10.0 mph16.1 kmh 29.99 in1015.6 mb 0.00 in0.0 mm 0.00 in0.0 mm 0.00 in0.0 mm
06:34 PM 33.8°F1.0°C 25.7°F-3.5°C 76% 5.0 mph NW8.0 kmh NW 10.0 mph16.1 kmh 29.99 in1015.6 mb 0.00 in0.0 mm 0.00 in0.0 mm 0.00 in0.0 mm
06:36 PM 33.7°F0.9°C 25.7°F-3.5°C 76% 5.0 mph NNW8.0 kmh NNW 10.0 mph16.1 kmh 30.00 in1015.9 mb 0.00 in0.0 mm 0.00 in0.0 mm 0.00 in0.0 mm
06:38 PM 33.7°F0.9°C 25.7°F-3.5°C 76% 2.0 mph NW3.2 kmh NW 10.0 mph16.1 kmh 29.99 in1015.6 mb 0.00 in0.0 mm 0.00 in0.0 mm 0.00 in0.0 mm
06:40 PM 33.7°F0.9°C 25.3°F-3.7°C 75% 4.0 mph NW6.4 kmh NW 10.0 mph16.1 kmh 29.99 in1015.6 mb 0.00 in0.0 mm 0.00 in0.0 mm 0.00 in0.0 mm
06:42 PM 33.7°F0.9°C 25.3°F-3.7°C 75% 9.0 mph NW14.5 kmh NW 10.0 mph16.1 kmh 30.00 in1015.9 mb 0.00 in0.0 mm 0.00 in0.0 mm 0.00 in0.0 mm
06:44 PM 33.7°F0.9°C 25.3°F-3.7°C 75% 4.0 mph NW6.4 kmh NW 10.0 mph16.1 kmh 30.00 in1015.9 mb 0.00 in0.0 mm 0.00 in0.0 mm 0.00 in0.0 mm
06:46 PM 33.7°F0.9°C 25.3°F-3.7°C 75% 4.0 mph NW6.4 kmh NW 10.0 mph16.1 kmh 30.00 in1015.9 mb 0.00 in0.0 mm 0.00 in0.0 mm 0.00 in0.0 mm
06:48 PM 33.7°F0.9°C 25.3°F-3.7°C 75% 2.0 mph NNW3.2 kmh NNW 10.0 mph16.1 kmh 30.00 in1015.9 mb 0.00 in0.0 mm 0.00 in0.0 mm 0.00 in0.0 mm
06:50 PM 33.7°F0.9°C 25.7°F-3.5°C 76% 3.0 mph NW4.8 kmh NW 9.0 mph14.5 kmh 30.00 in1015.9 mb 0.00 in0.0 mm 0.00 in0.0 mm 0.00 in0.0 mm
06:52 PM 33.7°F0.9°C 25.7°F-3.5°C 76% 5.0 mph NNW8.0 kmh NNW 9.0 mph14.5 kmh 30.00 in1015.9 mb 0.00 in0.0 mm 0.00 in0.0 mm 0.00 in0.0 mm
06:54 PM 33.7°F0.9°C 25.3°F-3.7°C 75% 3.0 mph NW4.8 kmh NW 9.0 mph14.5 kmh 30.00 in1015.9 mb 0.00 in0.0 mm 0.00 in0.0 mm 0.00 in0.0 mm
06:56 PM 33.6°F0.9°C 25.2°F-3.8°C 75% 4.0 mph NNW6.4 kmh NNW 9.0 mph14.5 kmh 30.00 in1015.9 mb 0.00 in0.0 mm 0.00 in0.0 mm 0.00 in0.0 mm
06:58 PM 33.6°F0.9°C 25.2°F-3.8°C 75% 3.0 mph NW4.8 kmh NW 9.0 mph14.5 kmh 30.00 in1015.9 mb 0.00 in0.0 mm 0.00 in0.0 mm 0.00 in0.0 mm
07:00 PM 33.6°F0.9°C 25.2°F-3.8°C 75% 3.0 mph NW4.8 kmh NW 8.0 mph12.9 kmh 30.00 in1015.9 mb 0.00 in0.0 mm 0.00 in0.0 mm 0.00 in0.0 mm
07:02 PM 33.6°F0.9°C 25.2°F-3.8°C 75% 2.0 mph NW3.2 kmh NW 8.0 mph12.9 kmh 30.00 in1015.9 mb 0.00 in0.0 mm 0.00 in0.0 mm 0.00 in0.0 mm
07:04 PM 33.6°F0.9°C 25.2°F-3.8°C 75% 2.0 mph NW3.2 kmh NW 8.0 mph12.9 kmh 30.00 in1015.9 mb 0.00 in0.0 mm 0.00 in0.0 mm 0.00 in0.0 mm
07:06 PM 33.6°F0.9°C 25.2°F-3.8°C 75% 2.0 mph NNW3.2 kmh NNW 8.0 mph12.9 kmh 30.00 in1015.9 mb 0.00 in0.0 mm 0.00 in0.0 mm 0.00 in0.0 mm
07:08 PM 33.5°F0.8°C 25.1°F-3.8°C 75% 3.0 mph NW4.8 kmh NW 8.0 mph12.9 kmh 30.00 in1015.9 mb 0.00 in0.0 mm 0.00 in0.0 mm 0.00 in0.0 mm
07:10 PM 33.5°F0.8°C 25.1°F-3.8°C 75% 3.0 mph NW4.8 kmh NW 5.0 mph8.0 kmh 30.00 in1015.9 mb 0.00 in0.0 mm 0.00 in0.0 mm 0.00 in0.0 mm
07:12 PM 33.5°F0.8°C 25.1°F-3.8°C 75% 3.0 mph NNW4.8 kmh NNW 5.0 mph8.0 kmh 30.00 in1015.9 mb 0.00 in0.0 mm 0.00 in0.0 mm 0.00 in0.0 mm
07:14 PM 33.4°F0.8°C 25.0°F-3.9°C 75% 5.0 mph NW8.0 kmh NW 7.0 mph11.3 kmh 30.00 in1015.9 mb 0.00 in0.0 mm 0.00 in0.0 mm 0.00 in0.0 mm
07:16 PM 33.3°F0.7°C 24.9°F-3.9°C 75% 5.0 mph NW8.0 kmh NW 7.0 mph11.3 kmh 30.00 in1015.9 mb 0.00 in0.0 mm 0.00 in0.0 mm 0.00 in0.0 mm
07:18 PM 33.3°F0.7°C 24.9°F-3.9°C 75% 4.0 mph NW6.4 kmh NW 7.0 mph11.3 kmh 30.00 in1015.9 mb 0.00 in0.0 mm 0.00 in0.0 mm 0.00 in0.0 mm
07:20 PM 33.2°F0.7°C 24.8°F-4.0°C 75% 5.0 mph NNW8.0 kmh NNW 7.0 mph11.3 kmh 30.00 in1015.9 mb 0.00 in0.0 mm 0.00 in0.0 mm 0.00 in0.0 mm
07:22 PM 33.2°F0.7°C 24.8°F-4.0°C 75% 2.0 mph N3.2 kmh N 7.0 mph11.3 kmh 30.00 in1015.9 mb 0.00 in0.0 mm 0.00 in0.0 mm 0.00 in0.0 mm
07:24 PM 33.1°F0.6°C 24.7°F-4.1°C 75% 4.0 mph NW6.4 kmh NW 7.0 mph11.3 kmh 30.00 in1015.9 mb 0.00 in0.0 mm 0.00 in0.0 mm 0.00 in0.0 mm
07:26 PM 33.0°F0.6°C 24.6°F-4.1°C 75% 2.0 mph NW3.2 kmh NW 7.0 mph11.3 kmh 30.00 in1015.9 mb 0.00 in0.0 mm 0.00 in0.0 mm 0.00 in0.0 mm
07:28 PM 33.0°F0.6°C 24.6°F-4.1°C 75% 2.0 mph NW3.2 kmh NW 7.0 mph11.3 kmh 30.01 in1016.3 mb 0.00 in0.0 mm 0.00 in0.0 mm 0.00 in0.0 mm
07:30 PM 32.9°F0.5°C 24.9°F-3.9°C 76% 3.0 mph NW4.8 kmh NW 7.0 mph11.3 kmh 30.01 in1016.3 mb 0.00 in0.0 mm 0.00 in0.0 mm 0.00 in0.0 mm
07:32 PM 32.8°F0.4°C 24.8°F-4.0°C 76% 2.0 mph NW3.2 kmh NW 7.0 mph11.3 kmh 30.01 in1016.3 mb 0.00 in0.0 mm 0.00 in0.0 mm 0.00 in0.0 mm
07:34 PM 32.8°F0.4°C 24.8°F-4.0°C 76% 2.0 mph NW3.2 kmh NW 4.0 mph6.4 kmh 30.01 in1016.3 mb 0.00 in0.0 mm 0.00 in0.0 mm 0.00 in0.0 mm
07:36 PM 32.7°F0.4°C 24.7°F-4.1°C 76% 2.0 mph NW3.2 kmh NW 4.0 mph6.4 kmh 30.01 in1016.3 mb 0.00 in0.0 mm 0.00 in0.0 mm 0.00 in0.0 mm
07:38 PM 32.6°F0.3°C 24.6°F-4.1°C 76% 1.0 mph NW1.6 kmh NW 4.0 mph6.4 kmh 30.01 in1016.3 mb 0.00 in0.0 mm 0.00 in0.0 mm 0.00 in0.0 mm
07:40 PM 32.6°F0.3°C 24.6°F-4.1°C 76% 4.0 mph NW6.4 kmh NW 5.0 mph8.0 kmh 30.01 in1016.3 mb 0.00 in0.0 mm 0.00 in0.0 mm 0.00 in0.0 mm
07:42 PM 32.5°F0.3°C 24.5°F-4.2°C 76% 3.0 mph NW4.8 kmh NW 5.0 mph8.0 kmh 30.01 in1016.3 mb 0.00 in0.0 mm 0.00 in0.0 mm 0.00 in0.0 mm
07:44 PM 32.5°F0.3°C 24.5°F-4.2°C 76% 3.0 mph NW4.8 kmh NW 5.0 mph8.0 kmh 30.01 in1016.3 mb 0.00 in0.0 mm 0.00 in0.0 mm 0.00 in0.0 mm
07:46 PM 32.5°F0.3°C 24.5°F-4.2°C 76% 4.0 mph NW6.4 kmh NW 5.0 mph8.0 kmh 30.01 in1016.3 mb 0.00 in0.0 mm 0.00 in0.0 mm 0.00 in0.0 mm
07:48 PM 32.5°F0.3°C 24.5°F-4.2°C 76% 2.0 mph NNW3.2 kmh NNW 5.0 mph8.0 kmh 30.01 in1016.3 mb 0.00 in0.0 mm 0.00 in0.0 mm 0.00 in0.0 mm
07:50 PM 32.4°F0.2°C 24.4°F-4.2°C 76% 4.0 mph NE6.4 kmh NE 5.0 mph8.0 kmh 30.01 in1016.3 mb 0.00 in0.0 mm 0.00 in0.0 mm 0.00 in0.0 mm
07:52 PM 32.3°F0.2°C 24.3°F-4.3°C 76% 3.0 mph NW4.8 kmh NW 5.0 mph8.0 kmh 30.01 in1016.3 mb 0.00 in0.0 mm 0.00 in0.0 mm 0.00 in0.0 mm
07:54 PM 32.3°F0.2°C 24.6°F-4.1°C 77% 2.0 mph NW3.2 kmh NW 5.0 mph8.0 kmh 30.01 in1016.3 mb 0.00 in0.0 mm 0.00 in0.0 mm 0.00 in0.0 mm
07:56 PM 32.3°F0.2°C 24.6°F-4.1°C 77% 4.0 mph NW6.4 kmh NW 5.0 mph8.0 kmh 30.01 in1016.3 mb 0.00 in0.0 mm 0.00 in0.0 mm 0.00 in0.0 mm
07:58 PM 32.3°F0.2°C 24.6°F-4.1°C 77% 1.0 mph NW1.6 kmh NW 5.0 mph8.0 kmh 30.01 in1016.3 mb 0.00 in0.0 mm 0.00 in0.0 mm 0.00 in0.0 mm
08:00 PM 32.2°F0.1°C 24.5°F-4.2°C 77% 2.0 mph NW3.2 kmh NW 5.0 mph8.0 kmh 30.01 in1016.3 mb 0.00 in0.0 mm 0.00 in0.0 mm 0.00 in0.0 mm
08:02 PM 32.2°F0.1°C 24.5°F-4.2°C 77% 2.0 mph NW3.2 kmh NW 5.0 mph8.0 kmh 30.01 in1016.3 mb 0.00 in0.0 mm 0.00 in0.0 mm 0.00 in0.0 mm
08:04 PM 32.1°F0.1°C 24.4°F-4.2°C 77% 1.0 mph NW1.6 kmh NW 5.0 mph8.0 kmh 30.02 in1016.6 mb 0.00 in0.0 mm 0.00 in0.0 mm 0.00 in0.0 mm
08:06 PM 32.1°F0.1°C 24.4°F-4.2°C 77% 1.0 mph NW1.6 kmh NW 5.0 mph8.0 kmh 30.01 in1016.3 mb 0.00 in0.0 mm 0.00 in0.0 mm 0.00 in0.0 mm
08:08 PM 32.1°F0.1°C 24.4°F-4.2°C 77% 1.0 mph NW1.6 kmh NW 5.0 mph8.0 kmh 30.01 in1016.3 mb 0.00 in0.0 mm 0.00 in0.0 mm 0.00 in0.0 mm
08:10 PM 32.0°F0.0°C 24.7°F-4.1°C 78% 1.0 mph NW1.6 kmh NW 3.0 mph4.8 kmh 30.02 in1016.6 mb 0.00 in0.0 mm 0.00 in0.0 mm 0.00 in0.0 mm
08:12 PM 32.0°F0.0°C 24.7°F-4.1°C 78% 1.0 mph NW1.6 kmh NW 3.0 mph4.8 kmh 30.02 in1016.6 mb 0.00 in0.0 mm 0.00 in0.0 mm 0.00 in0.0 mm
08:14 PM 32.0°F0.0°C 24.7°F-4.1°C 78% Calm Calm 3.0 mph4.8 kmh 30.02 in1016.6 mb 0.00 in0.0 mm 0.00 in0.0 mm 0.00 in0.0 mm
08:16 PM 31.9°F-0.1°C 24.6°F-4.1°C 78% Calm Calm -- 30.02 in1016.6 mb 0.00 in0.0 mm 0.00 in0.0 mm 0.00 in0.0 mm
08:18 PM 31.9°F-0.1°C 24.6°F-4.1°C 78% Calm Calm -- 30.02 in1016.6 mb 0.00 in0.0 mm 0.00 in0.0 mm 0.00 in0.0 mm
08:20 PM 31.9°F-0.1°C 24.6°F-4.1°C 78% Calm Calm -- 30.02 in1016.6 mb 0.00 in0.0 mm 0.00 in0.0 mm 0.00 in0.0 mm
08:22 PM 32.0°F0.0°C 25.0°F-3.9°C 79% 3.0 mph NW4.8 kmh NW 3.0 mph4.8 kmh 30.02 in1016.6 mb 0.00 in0.0 mm 0.00 in0.0 mm 0.00 in0.0 mm
08:24 PM 32.1°F0.1°C 24.8°F-4.0°C 78% 2.0 mph NW3.2 kmh NW 4.0 mph6.4 kmh 30.02 in1016.6 mb 0.00 in0.0 mm 0.00 in0.0 mm 0.00 in0.0 mm
08:26 PM 32.1°F0.1°C 25.1°F-3.8°C 79% 1.0 mph NW1.6 kmh NW 4.0 mph6.4 kmh 30.02 in1016.6 mb 0.00 in0.0 mm 0.00 in0.0 mm 0.00 in0.0 mm
08:28 PM 32.2°F0.1°C 25.2°F-3.8°C 79% 2.0 mph NW3.2 kmh NW 4.0 mph6.4 kmh 30.02 in1016.6 mb 0.00 in0.0 mm 0.00 in0.0 mm 0.00 in0.0 mm
08:30 PM 32.3°F0.2°C 25.3°F-3.7°C 79% 1.0 mph NW1.6 kmh NW 4.0 mph6.4 kmh 30.02 in1016.6 mb 0.00 in0.0 mm 0.00 in0.0 mm 0.00 in0.0 mm
08:32 PM 32.3°F0.2°C 25.3°F-3.7°C 79% 2.0 mph NW3.2 kmh NW 4.0 mph6.4 kmh 30.02 in1016.6 mb 0.00 in0.0 mm 0.00 in0.0 mm 0.00 in0.0 mm
08:34 PM 32.3°F0.2°C 25.3°F-3.7°C 79% 3.0 mph NW4.8 kmh NW 4.0 mph6.4 kmh 30.02 in1016.6 mb 0.00 in0.0 mm 0.00 in0.0 mm 0.00 in0.0 mm
08:36 PM 32.3°F0.2°C 25.3°F-3.7°C 79% 2.0 mph NW3.2 kmh NW 4.0 mph6.4 kmh 30.02 in1016.6 mb 0.00 in0.0 mm 0.00 in0.0 mm 0.00 in0.0 mm
08:38 PM 32.3°F0.2°C 25.3°F-3.7°C 79% 2.0 mph 3.2 kmh 4.0 mph6.4 kmh 30.03 in1016.9 mb 0.00 in0.0 mm 0.00 in0.0 mm 0.00 in0.0 mm
08:40 PM 32.3°F0.2°C 25.6°F-3.6°C 80% 2.0 mph N3.2 kmh N 4.0 mph6.4 kmh 30.03 in1016.9 mb 0.00 in0.0 mm 0.00 in0.0 mm 0.00 in0.0 mm
08:42 PM 32.3°F0.2°C 25.6°F-3.6°C 80% 2.0 mph NNW3.2 kmh NNW 4.0 mph6.4 kmh 30.03 in1016.9 mb 0.00 in0.0 mm 0.00 in0.0 mm 0.00 in0.0 mm
08:44 PM 32.3°F0.2°C 25.6°F-3.6°C 80% 3.0 mph NNW4.8 kmh NNW 4.0 mph6.4 kmh 30.03 in1016.9 mb 0.00 in0.0 mm 0.00 in0.0 mm 0.00 in0.0 mm
08:46 PM 32.3°F0.2°C 25.9°F-3.4°C 81% 4.0 mph N6.4 kmh N 5.0 mph8.0 kmh 30.03 in1016.9 mb 0.00 in0.0 mm 0.00 in0.0 mm 0.00 in0.0 mm
08:48 PM 32.3°F0.2°C 26.2°F-3.2°C 82% 5.0 mph NW8.0 kmh NW 7.0 mph11.3 kmh 30.03 in1016.9 mb 0.00 in0.0 mm 0.00 in0.0 mm 0.00 in0.0 mm
08:50 PM 32.2°F0.1°C 26.4°F-3.1°C 83% 3.0 mph NNW4.8 kmh NNW 7.0 mph11.3 kmh 30.03 in1016.9 mb 0.00 in0.0 mm 0.00 in0.0 mm 0.00 in0.0 mm
08:52 PM 32.1°F0.1°C 26.6°F-3.0°C 84% 2.0 mph N3.2 kmh N 7.0 mph11.3 kmh 30.03 in1016.9 mb 0.00 in0.0 mm 0.00 in0.0 mm 0.00 in0.0 mm
08:54 PM 32.0°F0.0°C 26.5°F-3.1°C 84% 2.0 mph NNW3.2 kmh NNW 7.0 mph11.3 kmh 30.03 in1016.9 mb 0.00 in0.0 mm 0.00 in0.0 mm 0.00 in0.0 mm
08:56 PM 31.9°F-0.1°C 26.7°F-2.9°C 85% 3.0 mph NW4.8 kmh NW 7.0 mph11.3 kmh 30.04 in1017.3 mb 0.00 in0.0 mm 0.00 in0.0 mm 0.00 in0.0 mm
08:58 PM 31.8°F-0.1°C 26.6°F-3.0°C 85% 3.0 mph NW4.8 kmh NW 7.0 mph11.3 kmh 30.04 in1017.3 mb 0.00 in0.0 mm 0.00 in0.0 mm 0.00 in0.0 mm
09:00 PM 31.7°F-0.2°C 26.8°F-2.9°C 86% 5.0 mph NW8.0 kmh NW 7.0 mph11.3 kmh 30.04 in1017.3 mb 0.00 in0.0 mm 0.00 in0.0 mm 0.00 in0.0 mm
09:02 PM 31.6°F-0.2°C 26.7°F-2.9°C 86% 3.0 mph NNW4.8 kmh NNW 7.0 mph11.3 kmh 30.03 in1016.9 mb 0.00 in0.0 mm 0.00 in0.0 mm 0.00 in0.0 mm
09:04 PM 31.5°F-0.3°C 26.9°F-2.8°C 87% 4.0 mph NNW6.4 kmh NNW 8.0 mph12.9 kmh 30.03 in1016.9 mb 0.00 in0.0 mm 0.00 in0.0 mm 0.00 in0.0 mm
09:06 PM 31.4°F-0.3°C 26.8°F-2.9°C 87% 2.0 mph NW3.2 kmh NW 8.0 mph12.9 kmh 30.03 in1016.9 mb 0.00 in0.0 mm 0.00 in0.0 mm 0.00 in0.0 mm
09:08 PM 31.3°F-0.4°C 27.0°F-2.8°C 88% 4.0 mph NW6.4 kmh NW 8.0 mph12.9 kmh 30.03 in1016.9 mb 0.00 in0.0 mm 0.00 in0.0 mm 0.00 in0.0 mm
09:10 PM 31.2°F-0.4°C 26.9°F-2.8°C 88% 2.0 mph WNW3.2 kmh WNW 8.0 mph12.9 kmh 30.03 in1016.9 mb 0.00 in0.0 mm 0.00 in0.0 mm 0.00 in0.0 mm
09:12 PM 31.1°F-0.5°C 26.8°F-2.9°C 88% 2.0 mph NNW3.2 kmh NNW 8.0 mph12.9 kmh 30.03 in1016.9 mb 0.00 in0.0 mm 0.00 in0.0 mm 0.00 in0.0 mm
09:14 PM 31.0°F-0.6°C 26.7°F-2.9°C 88% 2.0 mph NNW3.2 kmh NNW 8.0 mph12.9 kmh 30.03 in1016.9 mb 0.00 in0.0 mm 0.00 in0.0 mm 0.00 in0.0 mm
09:16 PM 30.9°F-0.6°C 26.6°F-3.0°C 88% 4.0 mph NW6.4 kmh NW 8.0 mph12.9 kmh 30.03 in1016.9 mb 0.00 in0.0 mm 0.00 in0.0 mm 0.00 in0.0 mm
09:18 PM 30.9°F-0.6°C 26.6°F-3.0°C 88% 2.0 mph NW3.2 kmh NW 8.0 mph12.9 kmh 30.04 in1017.3 mb 0.00 in0.0 mm 0.00 in0.0 mm 0.00 in0.0 mm
09:20 PM 30.8°F-0.7°C 26.8°F-2.9°C 89% 2.0 mph NW3.2 kmh NW 8.0 mph12.9 kmh 30.04 in1017.3 mb 0.00 in0.0 mm 0.00 in0.0 mm 0.00 in0.0 mm
09:22 PM 30.7°F-0.7°C 26.7°F-2.9°C 89% 2.0 mph NNW3.2 kmh NNW 8.0 mph12.9 kmh 30.04 in1017.3 mb 0.00 in0.0 mm 0.00 in0.0 mm 0.00 in0.0 mm
09:24 PM 30.7°F-0.7°C 26.7°F-2.9°C 89% 3.0 mph NW4.8 kmh NW 5.0 mph8.0 kmh 30.04 in1017.3 mb 0.00 in0.0 mm 0.00 in0.0 mm 0.00 in0.0 mm
09:26 PM 30.7°F-0.7°C 26.7°F-2.9°C 89% 3.0 mph NW4.8 kmh NW 5.0 mph8.0 kmh 30.04 in1017.3 mb 0.00 in0.0 mm 0.00 in0.0 mm 0.00 in0.0 mm
09:28 PM 30.6°F-0.8°C 26.6°F-3.0°C 89% 3.0 mph NW4.8 kmh NW 5.0 mph8.0 kmh 30.04 in1017.3 mb 0.00 in0.0 mm 0.00 in0.0 mm 0.00 in0.0 mm
09:30 PM 30.5°F-0.8°C 26.5°F-3.1°C 89% 1.0 mph NW1.6 kmh NW 5.0 mph8.0 kmh 30.04 in1017.3 mb 0.00 in0.0 mm 0.00 in0.0 mm 0.00 in0.0 mm
09:32 PM 30.5°F-0.8°C 26.5°F-3.1°C 89% 3.0 mph NW4.8 kmh NW 7.0 mph11.3 kmh 30.04 in1017.3 mb 0.00 in0.0 mm 0.00 in0.0 mm 0.00 in0.0 mm
09:34 PM 30.5°F-0.8°C 26.5°F-3.1°C 89% 3.0 mph NW4.8 kmh NW 7.0 mph11.3 kmh 30.04 in1017.3 mb 0.00 in0.0 mm 0.00 in0.0 mm 0.00 in0.0 mm
09:36 PM 30.5°F-0.8°C 26.5°F-3.1°C 89% 2.0 mph NW3.2 kmh NW 7.0 mph11.3 kmh 30.04 in1017.3 mb 0.00 in0.0 mm 0.00 in0.0 mm 0.00 in0.0 mm
09:38 PM 30.4°F-0.9°C 26.7°F-2.9°C 90% 2.0 mph NW3.2 kmh NW 7.0 mph11.3 kmh 30.04 in1017.3 mb 0.00 in0.0 mm 0.00 in0.0 mm 0.00 in0.0 mm
09:40 PM 30.4°F-0.9°C 26.7°F-2.9°C 90% 2.0 mph NW3.2 kmh NW 7.0 mph11.3 kmh 30.04 in1017.3 mb 0.00 in0.0 mm 0.00 in0.0 mm 0.00 in0.0 mm
09:42 PM 30.3°F-0.9°C 26.3°F-3.2°C 89% 2.0 mph NW3.2 kmh NW 7.0 mph11.3 kmh 30.04 in1017.3 mb 0.00 in0.0 mm 0.00 in0.0 mm 0.00 in0.0 mm
09:44 PM 30.3°F-0.9°C 26.6°F-3.0°C 90% 1.0 mph NW1.6 kmh NW 7.0 mph11.3 kmh 30.04 in1017.3 mb 0.00 in0.0 mm 0.00 in0.0 mm 0.00 in0.0 mm
09:46 PM 30.3°F-0.9°C 26.6°F-3.0°C 90% 3.0 mph NW4.8 kmh NW 7.0 mph11.3 kmh 30.04 in1017.3 mb 0.00 in0.0 mm 0.00 in0.0 mm 0.00 in0.0 mm
09:48 PM 30.3°F-0.9°C 26.6°F-3.0°C 90% 2.0 mph NW3.2 kmh NW 7.0 mph11.3 kmh 30.04 in1017.3 mb 0.00 in0.0 mm 0.00 in0.0 mm 0.00 in0.0 mm
09:50 PM 30.3°F-0.9°C 26.6°F-3.0°C 90% 2.0 mph NW3.2 kmh NW 7.0 mph11.3 kmh 30.04 in1017.3 mb 0.00 in0.0 mm 0.00 in0.0 mm 0.00 in0.0 mm
09:52 PM 30.3°F-0.9°C 26.6°F-3.0°C 90% 1.0 mph NW1.6 kmh NW 4.0 mph6.4 kmh 30.04 in1017.3 mb 0.00 in0.0 mm 0.00 in0.0 mm 0.00 in0.0 mm
09:54 PM 30.3°F-0.9°C 26.6°F-3.0°C 90% 1.0 mph NW1.6 kmh NW 4.0 mph6.4 kmh 30.04 in1017.3 mb 0.00 in0.0 mm 0.00 in0.0 mm 0.00 in0.0 mm
09:56 PM 30.3°F-0.9°C 26.6°F-3.0°C 90% 3.0 mph NW4.8 kmh NW 4.0 mph6.4 kmh 30.04 in1017.3 mb 0.00 in0.0 mm 0.00 in0.0 mm 0.00 in0.0 mm
09:58 PM 30.2°F-1.0°C 26.5°F-3.1°C 90% 2.0 mph WNW3.2 kmh WNW 4.0 mph6.4 kmh 30.04 in1017.3 mb 0.00 in0.0 mm 0.00 in0.0 mm 0.00 in0.0 mm
10:00 PM 30.2°F-1.0°C 26.5°F-3.1°C 90% 2.0 mph WNW3.2 kmh WNW 4.0 mph6.4 kmh 30.03 in1016.9 mb 0.00 in0.0 mm 0.00 in0.0 mm 0.00 in0.0 mm
10:02 PM 30.1°F-1.1°C 26.4°F-3.1°C 90% 3.0 mph WNW4.8 kmh WNW 3.0 mph4.8 kmh 30.03 in1016.9 mb 0.00 in0.0 mm 0.00 in0.0 mm 0.00 in0.0 mm
10:04 PM 30.1°F-1.1°C 26.4°F-3.1°C 90% 2.0 mph WNW3.2 kmh WNW 3.0 mph4.8 kmh 30.03 in1016.9 mb 0.00 in0.0 mm 0.00 in0.0 mm 0.00 in0.0 mm
10:06 PM 30.0°F-1.1°C 26.3°F-3.2°C 90% 2.0 mph WNW3.2 kmh WNW 3.0 mph4.8 kmh 30.03 in1016.9 mb 0.00 in0.0 mm 0.00 in0.0 mm 0.00 in0.0 mm
10:08 PM 29.9°F-1.2°C 26.2°F-3.2°C 90% 2.0 mph NW3.2 kmh NW 3.0 mph4.8 kmh 30.03 in1016.9 mb 0.00 in0.0 mm 0.00 in0.0 mm 0.00 in0.0 mm
10:10 PM 29.9°F-1.2°C 26.2°F-3.2°C 90% 2.0 mph NW3.2 kmh NW 3.0 mph4.8 kmh 30.03 in1016.9 mb 0.00 in0.0 mm 0.00 in0.0 mm 0.00 in0.0 mm
10:12 PM 29.9°F-1.2°C 26.2°F-3.2°C 90% 2.0 mph NW3.2 kmh NW 3.0 mph4.8 kmh 30.04 in1017.3 mb 0.00 in0.0 mm 0.00 in0.0 mm 0.00 in0.0 mm
10:14 PM 29.8°F-1.2°C 26.1°F-3.3°C 90% 2.0 mph NW3.2 kmh NW 3.0 mph4.8 kmh 30.03 in1016.9 mb 0.00 in0.0 mm 0.00 in0.0 mm 0.00 in0.0 mm
10:16 PM 29.7°F-1.3°C 26.0°F-3.3°C 90% 1.0 mph NW1.6 kmh NW 3.0 mph4.8 kmh 30.03 in1016.9 mb 0.00 in0.0 mm 0.00 in0.0 mm 0.00 in0.0 mm
10:18 PM 29.6°F-1.3°C 25.9°F-3.4°C 90% 2.0 mph NW3.2 kmh NW 4.0 mph6.4 kmh 30.03 in1016.9 mb 0.00 in0.0 mm 0.00 in0.0 mm 0.00 in0.0 mm
10:20 PM 29.6°F-1.3°C 25.9°F-3.4°C 90% 2.0 mph NW3.2 kmh NW 4.0 mph6.4 kmh 30.03 in1016.9 mb 0.00 in0.0 mm 0.00 in0.0 mm 0.00 in0.0 mm
10:22 PM 29.5°F-1.4°C 25.8°F-3.4°C 90% 1.0 mph NW1.6 kmh NW 4.0 mph6.4 kmh 30.03 in1016.9 mb 0.00 in0.0 mm 0.00 in0.0 mm 0.00 in0.0 mm
10:24 PM 29.4°F-1.4°C 25.7°F-3.5°C 90% 2.0 mph NW3.2 kmh NW 4.0 mph6.4 kmh 30.03 in1016.9 mb 0.00 in0.0 mm 0.00 in0.0 mm 0.00 in0.0 mm
10:26 PM 29.3°F-1.5°C 25.6°F-3.6°C 90% 2.0 mph NW3.2 kmh NW 4.0 mph6.4 kmh 30.03 in1016.9 mb 0.00 in0.0 mm 0.00 in0.0 mm 0.00 in0.0 mm
10:28 PM 29.3°F-1.5°C 25.6°F-3.6°C 90% 2.0 mph WNW3.2 kmh WNW 4.0 mph6.4 kmh 30.03 in1016.9 mb 0.00 in0.0 mm 0.00 in0.0 mm 0.00 in0.0 mm
10:30 PM 29.2°F-1.6°C 25.5°F-3.6°C 90% 1.0 mph WNW1.6 kmh WNW 4.0 mph6.4 kmh 30.03 in1016.9 mb 0.00 in0.0 mm 0.00 in0.0 mm 0.00 in0.0 mm
10:32 PM 29.2°F-1.6°C 25.5°F-3.6°C 90% 2.0 mph NW3.2 kmh NW 4.0 mph6.4 kmh 30.03 in1016.9 mb 0.00 in0.0 mm 0.00 in0.0 mm 0.00 in0.0 mm
10:34 PM 29.2°F-1.6°C 25.5°F-3.6°C 90% 2.0 mph NW3.2 kmh NW 4.0 mph6.4 kmh 30.04 in1017.3 mb 0.00 in0.0 mm 0.00 in0.0 mm 0.00 in0.0 mm
10:36 PM 29.1°F-1.6°C 25.4°F-3.7°C 90% 2.0 mph NW3.2 kmh NW 4.0 mph6.4 kmh 30.04 in1017.3 mb 0.00 in0.0 mm 0.00 in0.0 mm 0.00 in0.0 mm
10:38 PM 29.1°F-1.6°C 25.4°F-3.7°C 90% 3.0 mph NW4.8 kmh NW 4.0 mph6.4 kmh 30.04 in1017.3 mb 0.00 in0.0 mm 0.00 in0.0 mm 0.00 in0.0 mm
10:40 PM 29.0°F-1.7°C 25.3°F-3.7°C 90% 2.0 mph NW3.2 kmh NW 4.0 mph6.4 kmh 30.04 in1017.3 mb 0.00 in0.0 mm 0.00 in0.0 mm 0.00 in0.0 mm
10:42 PM 29.0°F-1.7°C 25.3°F-3.7°C 90% 3.0 mph NW4.8 kmh NW 4.0 mph6.4 kmh 30.04 in1017.3 mb 0.00 in0.0 mm 0.00 in0.0 mm 0.00 in0.0 mm
10:44 PM 29.0°F-1.7°C 25.3°F-3.7°C 90% 3.0 mph WNW4.8 kmh WNW 4.0 mph6.4 kmh 30.04 in1017.3 mb 0.00 in0.0 mm 0.00 in0.0 mm 0.00 in0.0 mm
10:46 PM 29.0°F-1.7°C 25.6°F-3.6°C 91% 2.0 mph NW3.2 kmh NW 4.0 mph6.4 kmh 30.04 in1017.3 mb 0.00 in0.0 mm 0.00 in0.0 mm 0.00 in0.0 mm
10:48 PM 29.0°F-1.7°C 25.6°F-3.6°C 91% 4.0 mph NW6.4 kmh NW 4.0 mph6.4 kmh 30.04 in1017.3 mb 0.00 in0.0 mm 0.00 in0.0 mm 0.00 in0.0 mm
10:50 PM 29.0°F-1.7°C 25.6°F-3.6°C 91% 3.0 mph NW4.8 kmh NW 5.0 mph8.0 kmh 30.04 in1017.3 mb 0.00 in0.0 mm 0.00 in0.0 mm 0.00 in0.0 mm
10:52 PM 29.0°F-1.7°C 25.6°F-3.6°C 91% 3.0 mph NW4.8 kmh NW 5.0 mph8.0 kmh 30.04 in1017.3 mb 0.00 in0.0 mm 0.00 in0.0 mm 0.00 in0.0 mm
10:54 PM 29.1°F-1.6°C 25.7°F-3.5°C 91% 3.0 mph NW4.8 kmh NW 5.0 mph8.0 kmh 30.04 in1017.3 mb 0.00 in0.0 mm 0.00 in0.0 mm 0.00 in0.0 mm
10:56 PM 29.1°F-1.6°C 25.7°F-3.5°C 91% 1.0 mph NW1.6 kmh NW 5.0 mph8.0 kmh 30.04 in1017.3 mb 0.00 in0.0 mm 0.00 in0.0 mm 0.00 in0.0 mm
10:58 PM 29.1°F-1.6°C 25.7°F-3.5°C 91% 1.0 mph NW1.6 kmh NW 5.0 mph8.0 kmh 30.04 in1017.3 mb 0.00 in0.0 mm 0.00 in0.0 mm 0.00 in0.0 mm
11:00 PM 29.1°F-1.6°C 25.7°F-3.5°C 91% 3.0 mph NW4.8 kmh NW 5.0 mph8.0 kmh 30.04 in1017.3 mb 0.00 in0.0 mm 0.00 in0.0 mm 0.00 in0.0 mm
11:02 PM 29.2°F-1.6°C 25.8°F-3.4°C 91% 3.0 mph NW4.8 kmh NW 5.0 mph8.0 kmh 30.04 in1017.3 mb 0.00 in0.0 mm 0.00 in0.0 mm 0.00 in0.0 mm
11:04 PM 29.2°F-1.6°C 25.8°F-3.4°C 91% 4.0 mph WNW6.4 kmh WNW 5.0 mph8.0 kmh 30.05 in1017.6 mb 0.00 in0.0 mm 0.00 in0.0 mm 0.00 in0.0 mm
11:06 PM 29.3°F-1.5°C 25.9°F-3.4°C 91% 3.0 mph WNW4.8 kmh WNW 5.0 mph8.0 kmh 30.05 in1017.6 mb 0.00 in0.0 mm 0.00 in0.0 mm 0.00 in0.0 mm
11:08 PM 29.3°F-1.5°C 25.9°F-3.4°C 91% 4.0 mph WSW6.4 kmh WSW 5.0 mph8.0 kmh 30.04 in1017.3 mb 0.00 in0.0 mm 0.00 in0.0 mm 0.00 in0.0 mm
11:10 PM 29.3°F-1.5°C 25.9°F-3.4°C 91% 2.0 mph NW3.2 kmh NW 4.0 mph6.4 kmh 30.04 in1017.3 mb 0.00 in0.0 mm 0.00 in0.0 mm 0.00 in0.0 mm
11:12 PM 29.3°F-1.5°C 25.6°F-3.6°C 90% 2.0 mph NW3.2 kmh NW 4.0 mph6.4 kmh 30.04 in1017.3 mb 0.00 in0.0 mm 0.00 in0.0 mm 0.00 in0.0 mm
11:14 PM 29.3°F-1.5°C 25.6°F-3.6°C 90% 3.0 mph NNW4.8 kmh NNW 4.0 mph6.4 kmh 30.04 in1017.3 mb 0.00 in0.0 mm 0.00 in0.0 mm 0.00 in0.0 mm
11:16 PM 29.2°F-1.6°C 25.5°F-3.6°C 90% 2.0 mph NW3.2 kmh NW 4.0 mph6.4 kmh 30.04 in1017.3 mb 0.00 in0.0 mm 0.00 in0.0 mm 0.00 in0.0 mm
11:18 PM 29.2°F-1.6°C 25.5°F-3.6°C 90% 2.0 mph NW3.2 kmh NW 4.0 mph6.4 kmh 30.04 in1017.3 mb 0.00 in0.0 mm 0.00 in0.0 mm 0.00 in0.0 mm
11:20 PM 29.1°F-1.6°C 25.4°F-3.7°C 90% 2.0 mph NW3.2 kmh NW 4.0 mph6.4 kmh 30.05 in1017.6 mb 0.00 in0.0 mm 0.00 in0.0 mm 0.00 in0.0 mm
11:22 PM 29.1°F-1.6°C 25.4°F-3.7°C 90% 3.0 mph NW4.8 kmh NW 4.0 mph6.4 kmh 30.05 in1017.6 mb 0.00 in0.0 mm 0.00 in0.0 mm 0.00 in0.0 mm
11:24 PM 29.1°F-1.6°C 25.4°F-3.7°C 90% 2.0 mph NW3.2 kmh NW 4.0 mph6.4 kmh 30.05 in1017.6 mb 0.00 in0.0 mm 0.00 in0.0 mm 0.00 in0.0 mm
11:26 PM 29.0°F-1.7°C 25.3°F-3.7°C 90% 2.0 mph NW3.2 kmh NW 4.0 mph6.4 kmh 30.05 in1017.6 mb 0.00 in0.0 mm 0.00 in0.0 mm 0.00 in0.0 mm
11:28 PM 28.9°F-1.7°C 25.2°F-3.8°C 90% 2.0 mph NW3.2 kmh NW 4.0 mph6.4 kmh 30.05 in1017.6 mb 0.00 in0.0 mm 0.00 in0.0 mm 0.00 in0.0 mm
11:30 PM 28.9°F-1.7°C 25.2°F-3.8°C 90% 3.0 mph NW4.8 kmh NW 4.0 mph6.4 kmh 30.05 in1017.6 mb 0.00 in0.0 mm 0.00 in0.0 mm 0.00 in0.0 mm
11:32 PM 28.9°F-1.7°C 25.2°F-3.8°C 90% 2.0 mph NW3.2 kmh NW 4.0 mph6.4 kmh 30.05 in1017.6 mb 0.00 in0.0 mm 0.00 in0.0 mm 0.00 in0.0 mm
11:34 PM 28.8°F-1.8°C 25.2°F-3.8°C 90% 2.0 mph NW3.2 kmh NW 4.0 mph6.4 kmh 30.05 in1017.6 mb 0.00 in0.0 mm 0.00 in0.0 mm 0.00 in0.0 mm
11:36 PM 28.8°F-1.8°C 25.2°F-3.8°C 90% 2.0 mph NW3.2 kmh NW 4.0 mph6.4 kmh 30.05 in1017.6 mb 0.00 in0.0 mm 0.00 in0.0 mm 0.00 in0.0 mm
11:38 PM 28.7°F-1.8°C 24.8°F-4.0°C 89% 3.0 mph NW4.8 kmh NW 4.0 mph6.4 kmh 30.05 in1017.6 mb 0.00 in0.0 mm 0.00 in0.0 mm 0.00 in0.0 mm
11:40 PM 28.6°F-1.9°C 24.7°F-4.1°C 89% 3.0 mph NW4.8 kmh NW 4.0 mph6.4 kmh 30.05 in1017.6 mb 0.00 in0.0 mm 0.00 in0.0 mm 0.00 in0.0 mm
11:42 PM 28.6°F-1.9°C 25.0°F-3.9°C 90% 2.0 mph NW3.2 kmh NW 4.0 mph6.4 kmh 30.05 in1017.6 mb 0.00 in0.0 mm 0.00 in0.0 mm 0.00 in0.0 mm
11:44 PM 28.6°F-1.9°C 25.0°F-3.9°C 90% 2.0 mph NW3.2 kmh NW 4.0 mph6.4 kmh 30.05 in1017.6 mb 0.00 in0.0 mm 0.00 in0.0 mm 0.00 in0.0 mm
11:46 PM 28.6°F-1.9°C 25.0°F-3.9°C 90% 2.0 mph NW3.2 kmh NW 4.0 mph6.4 kmh 30.05 in1017.6 mb 0.00 in0.0 mm 0.00 in0.0 mm 0.00 in0.0 mm
11:48 PM 28.5°F-1.9°C 24.9°F-3.9°C 90% 3.0 mph NW4.8 kmh NW 4.0 mph6.4 kmh 30.05 in1017.6 mb 0.00 in0.0 mm 0.00 in0.0 mm 0.00 in0.0 mm
11:50 PM 28.4°F-2.0°C 24.8°F-4.0°C 90% 3.0 mph NW4.8 kmh NW 4.0 mph6.4 kmh 30.05 in1017.6 mb 0.00 in0.0 mm 0.00 in0.0 mm 0.00 in0.0 mm
11:52 PM 28.4°F-2.0°C 24.8°F-4.0°C 90% 2.0 mph NW3.2 kmh NW 4.0 mph6.4 kmh 30.05 in1017.6 mb 0.00 in0.0 mm 0.00 in0.0 mm 0.00 in0.0 mm
11:54 PM 28.4°F-2.0°C 24.8°F-4.0°C 90% 2.0 mph NNW3.2 kmh NNW 4.0 mph6.4 kmh 30.05 in1017.6 mb 0.00 in0.0 mm 0.00 in0.0 mm 0.00 in0.0 mm
11:56 PM 28.4°F-2.0°C 24.8°F-4.0°C 90% 2.0 mph NW3.2 kmh NW 4.0 mph6.4 kmh 30.05 in1017.6 mb 0.00 in0.0 mm 0.00 in0.0 mm 0.00 in0.0 mm
11:58 PM 28.3°F-2.1°C 24.7°F-4.1°C 90% 3.0 mph NW4.8 kmh NW 4.0 mph6.4 kmh 30.05 in1017.6 mb 0.00 in0.0 mm 0.00 in0.0 mm 0.00 in0.0 mm